Time,TemperatureF,DewpointF,PressureIn,WindDirection,WindDirectionDegrees,WindSpeedMPH,WindSpeedGustMPH,Humidity,HourlyPrecipIn,Conditions,Clouds,dailyrainin,SoftwareType,DateUTC
2013-04-03 00:00:00,32.2,10.6,29.32,NNW,338,3.1,5.8,40,0.00,,---,0.00,VWS V13.01,2013-04-03 04:00:00,
2013-04-03 00:05:00,32.2,10.6,29.32,NE,45,1.3,1.3,40,0.00,,---,0.00,VWS V13.01,2013-04-03 04:05:00,
2013-04-03 00:10:00,32.2,10.6,29.32,West,270,1.3,1.3,40,0.00,,---,0.00,VWS V13.01,2013-04-03 04:10:00,
2013-04-03 00:15:00,32.2,10.6,29.32,WNW,292,3.6,4.0,40,0.00,,---,0.00,VWS V13.01,2013-04-03 04:15:00,
2013-04-03 00:16:00,32.2,10.6,29.32,North,0,2.9,3.6,40,0.00,,---,0.00,VWS V13.01,2013-04-03 04:16:00,
2013-04-03 00:20:00,31.8,10.3,29.32,SW,225,2.9,6.0,40,0.00,,---,0.00,VWS V13.01,2013-04-03 04:20:00,
2013-04-03 00:21:00,31.8,10.3,29.32,SW,225,2.9,2.9,40,0.00,,---,0.00,VWS V13.01,2013-04-03 04:21:00,
2013-04-03 00:25:00,31.8,10.3,29.32,NW,315,2.5,2.5,40,0.00,,---,0.00,VWS V13.01,2013-04-03 04:25:00,
2013-04-03 00:26:00,31.8,10.3,29.32,NW,315,2.5,2.5,40,0.00,,---,0.00,VWS V13.01,2013-04-03 04:26:00,
2013-04-03 00:27:00,31.8,10.3,29.32,NW,315,3.1,3.1,40,0.00,,---,0.00,VWS V13.01,2013-04-03 04:27:00,
2013-04-03 00:30:00,31.6,10.1,29.32,WNW,292,2.7,4.3,40,0.00,,---,0.00,VWS V13.01,2013-04-03 04:30:00,
2013-04-03 00:31:00,31.6,10.1,29.32,WSW,248,3.1,3.1,40,0.00,,---,0.00,VWS V13.01,2013-04-03 04:31:00,
2013-04-03 00:32:00,31.6,10.1,29.32,WNW,292,3.1,3.1,40,0.00,,---,0.00,VWS V13.01,2013-04-03 04:32:00,
2013-04-03 00:35:00,31.6,10.1,29.32,WSW,248,1.6,1.6,40,0.00,,---,0.00,VWS V13.01,2013-04-03 04:35:00,
2013-04-03 00:36:00,31.6,10.1,29.32,SW,225,3.1,3.1,40,0.00,,---,0.00,VWS V13.01,2013-04-03 04:36:00,
2013-04-03 00:37:00,31.6,10.1,29.32,SW,225,3.1,3.1,40,0.00,,---,0.00,VWS V13.01,2013-04-03 04:37:00,
2013-04-03 00:40:00,31.6,10.1,29.32,NNW,338,2.5,2.5,40,0.00,,---,0.00,VWS V13.01,2013-04-03 04:40:00,
2013-04-03 00:42:00,31.6,10.1,29.32,SE,135,1.6,2.5,40,0.00,,---,0.00,VWS V13.01,2013-04-03 04:42:00,
2013-04-03 00:45:00,31.6,10.1,29.32,NNW,338,4.9,4.9,40,0.00,,---,0.00,VWS V13.01,2013-04-03 04:45:00,
2013-04-03 00:47:00,31.6,10.1,29.32,NW,315,3.8,4.9,40,0.00,,---,0.00,VWS V13.01,2013-04-03 04:47:00,
2013-04-03 00:50:00,31.5,9.9,29.32,SSW,202,2.2,2.9,40,0.00,,---,0.00,VWS V13.01,2013-04-03 04:50:00,
2013-04-03 00:52:00,31.5,9.9,29.32,WNW,292,3.8,3.8,40,0.00,,---,0.00,VWS V13.01,2013-04-03 04:52:00,
2013-04-03 00:53:00,31.5,9.9,29.32,WNW,292,3.8,3.8,40,0.00,,---,0.00,VWS V13.01,2013-04-03 04:53:00,
2013-04-03 00:55:00,31.5,9.9,29.32,NNE,22,3.4,3.4,40,0.00,,---,0.00,VWS V13.01,2013-04-03 04:55:00,
2013-04-03 00:56:00,31.5,9.9,29.32,NNE,22,3.4,3.4,40,0.00,,---,0.00,VWS V13.01,2013-04-03 04:56:00,
2013-04-03 00:57:00,31.5,9.9,29.32,West,270,3.4,3.4,40,0.00,,---,0.00,VWS V13.01,2013-04-03 04:57:00,
2013-04-03 00:58:00,31.5,9.9,29.32,West,270,3.4,3.4,40,0.00,,---,0.00,VWS V13.01,2013-04-03 04:58:00,
2013-04-03 01:00:00,31.5,9.9,29.32,West,270,6.0,6.0,40,0.00,,---,0.00,VWS V13.01,2013-04-03 05:00:00,
2013-04-03 01:03:00,31.5,9.9,29.32,West,270,5.4,5.4,40,0.00,,---,0.00,VWS V13.01,2013-04-03 05:03:00,
2013-04-03 01:05:00,31.5,9.9,29.32,WSW,248,7.8,7.8,40,0.00,,---,0.00,VWS V13.01,2013-04-03 05:05:00,
2013-04-03 01:08:00,31.5,9.9,29.32,WSW,248,3.4,3.4,40,0.00,,---,0.00,VWS V13.01,2013-04-03 05:08:00,
2013-04-03 01:10:00,31.1,9.6,29.32,WNW,292,3.4,3.4,40,0.00,,---,0.00,VWS V13.01,2013-04-03 05:10:00,
2013-04-03 01:11:00,31.1,9.6,29.32,WNW,292,3.4,3.4,40,0.00,,---,0.00,VWS V13.01,2013-04-03 05:11:00,
2013-04-03 01:13:00,31.1,9.6,29.32,West,270,6.3,6.3,40,0.00,,---,0.00,VWS V13.01,2013-04-03 05:13:00,
2013-04-03 01:14:00,31.1,9.6,29.32,West,270,5.6,6.3,40,0.00,,---,0.00,VWS V13.01,2013-04-03 05:14:00,
2013-04-03 01:16:00,31.1,9.6,29.32,East,90,4.0,4.0,40,0.00,,---,0.00,VWS V13.01,2013-04-03 05:16:00,
2013-04-03 01:18:00,31.1,9.6,29.32,NW,315,2.0,4.0,40,0.00,,---,0.00,VWS V13.01,2013-04-03 05:18:00,
2013-04-03 01:19:00,31.1,9.6,29.32,NNW,338,3.4,3.4,40,0.00,,---,0.00,VWS V13.01,2013-04-03 05:19:00,
2013-04-03 01:21:00,31.1,9.6,29.32,WSW,248,1.1,1.1,40,0.00,,---,0.00,VWS V13.01,2013-04-03 05:21:00,
2013-04-03 01:23:00,31.1,9.6,29.32,NNW,338,3.1,4.0,40,0.00,,---,0.00,VWS V13.01,2013-04-03 05:23:00,
2013-04-03 01:24:00,31.1,9.6,29.32,NNW,338,3.1,4.0,40,0.00,,---,0.00,VWS V13.01,2013-04-03 05:24:00,
2013-04-03 01:26:00,31.1,9.6,29.32,WNW,292,2.7,2.7,40,0.00,,---,0.00,VWS V13.01,2013-04-03 05:26:00,
2013-04-03 01:28:00,31.1,9.6,29.32,West,270,3.8,3.8,40,0.00,,---,0.00,VWS V13.01,2013-04-03 05:28:00,
2013-04-03 01:29:00,31.1,9.6,29.32,WNW,292,3.8,3.8,40,0.00,,---,0.00,VWS V13.01,2013-04-03 05:29:00,
2013-04-03 01:31:00,31.1,10.2,29.32,SSE,158,3.8,5.4,41,0.00,,---,0.00,VWS V13.01,2013-04-03 05:31:00,
2013-04-03 01:32:00,31.1,10.2,29.32,NNW,338,2.5,3.8,41,0.00,,---,0.00,VWS V13.01,2013-04-03 05:32:00,
2013-04-03 01:33:00,31.1,10.2,29.32,WSW,248,2.0,2.5,41,0.00,,---,0.00,VWS V13.01,2013-04-03 05:33:00,
2013-04-03 01:34:00,31.1,10.2,29.32,West,270,2.5,2.5,41,0.00,,---,0.00,VWS V13.01,2013-04-03 05:34:00,
2013-04-03 01:36:00,31.1,10.2,29.32,SSW,202,2.7,2.7,41,0.00,,---,0.00,VWS V13.01,2013-04-03 05:36:00,
2013-04-03 01:37:00,31.1,10.2,29.32,West,270,1.1,2.7,41,0.00,,---,0.00,VWS V13.01,2013-04-03 05:37:00,
2013-04-03 01:38:00,30.7,9.8,29.32,West,270,1.6,1.6,41,0.00,,---,0.00,VWS V13.01,2013-04-03 05:38:00,
2013-04-03 01:39:00,30.7,9.8,29.32,West,270,1.6,1.6,41,0.00,,---,0.00,VWS V13.01,2013-04-03 05:39:00,
2013-04-03 01:42:00,30.7,9.8,29.32,West,270,1.6,1.6,41,0.00,,---,0.00,VWS V13.01,2013-04-03 05:42:00,
2013-04-03 01:43:00,30.7,9.8,29.32,SSW,202,0.0,0.0,41,0.00,,---,0.00,VWS V13.01,2013-04-03 05:43:00,
2013-04-03 01:44:00,30.7,9.8,29.32,SSW,202,0.0,0.0,41,0.00,,---,0.00,VWS V13.01,2013-04-03 05:44:00,
2013-04-03 01:47:00,30.7,9.8,29.32,South,180,0.0,0.0,41,0.00,,---,0.00,VWS V13.01,2013-04-03 05:47:00,
2013-04-03 01:48:00,30.7,9.8,29.32,WSW,248,0.0,1.1,41,0.00,,---,0.00,VWS V13.01,2013-04-03 05:48:00,
2013-04-03 01:49:00,30.7,9.8,29.32,WSW,248,0.0,1.1,41,0.00,,---,0.00,VWS V13.01,2013-04-03 05:49:00,
2013-04-03 01:52:00,30.4,9.5,29.32,SSW,202,2.9,2.9,41,0.00,,---,0.00,VWS V13.01,2013-04-03 05:52:00,
2013-04-03 01:53:00,30.4,9.5,29.32,West,270,0.0,2.9,41,0.00,,---,0.00,VWS V13.01,2013-04-03 05:53:00,
2013-04-03 01:54:00,30.4,9.5,29.32,NW,315,3.1,3.1,41,0.00,,---,0.00,VWS V13.01,2013-04-03 05:54:00,
2013-04-03 01:57:00,30.4,9.5,29.32,North,0,2.0,2.0,41,0.00,,---,0.00,VWS V13.01,2013-04-03 05:57:00,
2013-04-03 01:58:00,30.4,9.5,29.32,WSW,248,0.0,3.6,41,0.00,,---,0.00,VWS V13.01,2013-04-03 05:58:00,
2013-04-03 01:59:00,30.4,9.5,29.32,WSW,248,0.0,0.0,41,0.00,,---,0.00,VWS V13.01,2013-04-03 05:59:00,
2013-04-03 02:03:00,30.4,9.5,29.32,WSW,248,1.1,1.1,41,0.00,,---,0.00,VWS V13.01,2013-04-03 06:03:00,
2013-04-03 02:04:00,30.2,9.4,29.32,WSW,248,0.0,1.1,41,0.00,,---,0.00,VWS V13.01,2013-04-03 06:04:00,
2013-04-03 02:09:00,30.2,9.4,29.32,West,270,1.1,1.1,41,0.00,,---,0.00,VWS V13.01,2013-04-03 06:09:00,
2013-04-03 02:10:00,30.2,9.4,29.32,SSW,202,2.5,2.5,41,0.00,,---,0.00,VWS V13.01,2013-04-03 06:10:00,
2013-04-03 02:14:00,30.2,9.4,29.32,WSW,248,3.4,3.4,41,0.00,,---,0.00,VWS V13.01,2013-04-03 06:14:00,
2013-04-03 02:15:00,30.2,9.4,29.32,WSW,248,1.6,3.4,41,0.00,,---,0.00,VWS V13.01,2013-04-03 06:15:00,
2013-04-03 02:19:00,30.2,9.4,29.32,NE,45,0.0,2.7,41,0.00,,---,0.00,VWS V13.01,2013-04-03 06:19:00,
2013-04-03 02:20:00,30.2,9.4,29.32,NE,45,0.0,2.7,41,0.00,,---,0.00,VWS V13.01,2013-04-03 06:20:00,
2013-04-03 02:24:00,30.2,9.4,29.32,SSE,158,0.0,0.0,41,0.00,,---,0.00,VWS V13.01,2013-04-03 06:24:00,
2013-04-03 02:25:00,30.2,9.4,29.32,WSW,248,0.9,0.9,41,0.00,,---,0.00,VWS V13.01,2013-04-03 06:25:00,
2013-04-03 02:29:00,30.2,9.4,29.32,WSW,248,1.1,1.1,41,0.00,,---,0.00,VWS V13.01,2013-04-03 06:29:00,
2013-04-03 02:30:00,30.2,9.4,29.32,WSW,248,2.2,2.2,41,0.00,,---,0.00,VWS V13.01,2013-04-03 06:30:00,
2013-04-03 02:34:00,30.0,9.2,29.32,WSW,248,2.7,3.8,41,0.00,,---,0.00,VWS V13.01,2013-04-03 06:34:00,
2013-04-03 02:35:00,30.0,9.2,29.32,WSW,248,2.7,3.8,41,0.00,,---,0.00,VWS V13.01,2013-04-03 06:35:00,
2013-04-03 02:39:00,29.8,9.6,29.32,West,270,0.9,0.9,42,0.00,,---,0.00,VWS V13.01,2013-04-03 06:39:00,
2013-04-03 02:40:00,29.8,9.6,29.32,West,270,2.0,2.0,42,0.00,,---,0.00,VWS V13.01,2013-04-03 06:40:00,
2013-04-03 02:45:00,29.8,9.6,29.32,West,270,0.9,0.9,42,0.00,,---,0.00,VWS V13.01,2013-04-03 06:45:00,
2013-04-03 02:50:00,29.8,9.6,29.32,SSE,158,4.3,4.3,42,0.00,,---,0.00,VWS V13.01,2013-04-03 06:50:00,
2013-04-03 02:55:00,29.8,9.6,29.32,WNW,292,2.7,2.7,42,0.00,,---,0.00,VWS V13.01,2013-04-03 06:55:00,
2013-04-03 02:56:00,29.8,9.6,29.32,East,90,1.1,2.7,42,0.00,,---,0.00,VWS V13.01,2013-04-03 06:56:00,
2013-04-03 03:00:00,29.7,9.4,29.32,SW,225,3.1,3.1,42,0.00,,---,0.00,VWS V13.01,2013-04-03 07:00:00,
2013-04-03 03:01:00,29.7,9.4,29.32,WSW,248,1.1,3.1,42,0.00,,---,0.00,VWS V13.01,2013-04-03 07:01:00,
2013-04-03 03:05:00,29.7,9.4,29.32,West,270,4.0,4.0,42,0.00,,---,0.00,VWS V13.01,2013-04-03 07:05:00,
2013-04-03 03:06:00,29.7,9.4,29.32,WNW,292,2.9,4.0,42,0.00,,---,0.00,VWS V13.01,2013-04-03 07:06:00,
2013-04-03 03:10:00,29.7,9.4,29.32,West,270,4.9,4.9,42,0.00,,---,0.00,VWS V13.01,2013-04-03 07:10:00,
2013-04-03 03:11:00,29.7,9.4,29.32,West,270,3.4,3.4,42,0.00,,---,0.00,VWS V13.01,2013-04-03 07:11:00,
2013-04-03 03:15:00,29.5,9.2,29.32,NW,315,1.1,1.1,42,0.00,,---,0.00,VWS V13.01,2013-04-03 07:15:00,
2013-04-03 03:16:00,29.5,9.2,29.32,WSW,248,4.9,4.9,42,0.00,,---,0.00,VWS V13.01,2013-04-03 07:16:00,
2013-04-03 03:17:00,29.5,9.2,29.32,West,270,1.3,4.9,42,0.00,,---,0.00,VWS V13.01,2013-04-03 07:17:00,
2013-04-03 03:20:00,29.5,9.2,29.32,WSW,248,3.8,3.8,42,0.00,,---,0.00,VWS V13.01,2013-04-03 07:20:00,
2013-04-03 03:22:00,29.5,9.2,29.32,West,270,5.6,5.6,42,0.00,,---,0.00,VWS V13.01,2013-04-03 07:22:00,
2013-04-03 03:25:00,29.5,9.2,29.32,WNW,292,7.6,7.6,42,0.00,,---,0.00,VWS V13.01,2013-04-03 07:25:00,
2013-04-03 03:27:00,29.5,9.2,29.32,WNW,292,3.4,3.4,42,0.00,,---,0.00,VWS V13.01,2013-04-03 07:27:00,
2013-04-03 03:30:00,29.5,9.2,29.32,WSW,248,0.0,0.0,42,0.00,,---,0.00,VWS V13.01,2013-04-03 07:30:00,
2013-04-03 03:32:00,29.5,9.2,29.32,West,270,4.0,4.0,42,0.00,,---,0.00,VWS V13.01,2013-04-03 07:32:00,
2013-04-03 03:33:00,29.5,9.2,29.32,West,270,4.0,4.0,42,0.00,,---,0.00,VWS V13.01,2013-04-03 07:33:00,
2013-04-03 03:35:00,29.5,9.2,29.32,NW,315,0.0,0.0,42,0.00,,---,0.00,VWS V13.01,2013-04-03 07:35:00,
2013-04-03 03:37:00,29.5,9.2,29.32,WNW,292,0.9,0.9,42,0.00,,---,0.00,VWS V13.01,2013-04-03 07:37:00,
2013-04-03 03:38:00,29.5,9.2,29.32,West,270,2.0,2.0,42,0.00,,---,0.00,VWS V13.01,2013-04-03 07:38:00,
2013-04-03 03:40:00,29.3,9.1,29.32,WNW,292,2.0,2.0,42,0.00,,---,0.00,VWS V13.01,2013-04-03 07:40:00,
2013-04-03 03:42:00,29.3,9.1,29.32,SW,225,3.1,3.1,42,0.00,,---,0.00,VWS V13.01,2013-04-03 07:42:00,
2013-04-03 03:43:00,29.3,9.1,29.32,SW,225,3.1,3.1,42,0.00,,---,0.00,VWS V13.01,2013-04-03 07:43:00,
2013-04-03 03:45:00,29.3,9.1,29.32,NE,45,1.1,3.8,42,0.00,,---,0.00,VWS V13.01,2013-04-03 07:45:00,
2013-04-03 03:47:00,29.3,9.1,29.32,NW,315,1.3,1.3,42,0.00,,---,0.00,VWS V13.01,2013-04-03 07:47:00,
2013-04-03 03:48:00,29.3,9.1,29.32,West,270,3.1,3.1,42,0.00,,---,0.00,VWS V13.01,2013-04-03 07:48:00,
2013-04-03 03:50:00,29.3,9.1,29.32,North,0,3.6,3.6,42,0.00,,---,0.00,VWS V13.01,2013-04-03 07:50:00,
2013-04-03 03:52:00,29.3,9.1,29.32,WSW,248,0.0,0.0,42,0.00,,---,0.00,VWS V13.01,2013-04-03 07:52:00,
2013-04-03 03:53:00,29.3,9.1,29.32,WSW,248,0.0,0.0,42,0.00,,---,0.00,VWS V13.01,2013-04-03 07:53:00,
2013-04-03 03:55:00,29.3,9.1,29.32,South,180,0.0,2.7,42,0.00,,---,0.00,VWS V13.01,2013-04-03 07:55:00,
2013-04-03 03:57:00,29.3,9.1,29.32,West,270,2.5,2.5,42,0.00,,---,0.00,VWS V13.01,2013-04-03 07:57:00,
2013-04-03 03:58:00,29.3,9.1,29.32,WNW,292,2.7,2.7,42,0.00,,---,0.00,VWS V13.01,2013-04-03 07:58:00,
2013-04-03 04:01:00,29.3,9.1,29.32,SW,225,2.7,3.6,42,0.00,,---,0.00,VWS V13.01,2013-04-03 08:01:00,
2013-04-03 04:03:00,29.3,9.1,29.32,WSW,248,1.1,1.3,42,0.00,,---,0.00,VWS V13.01,2013-04-03 08:03:00,
2013-04-03 04:04:00,29.3,9.1,29.32,WSW,248,3.1,3.1,42,0.00,,---,0.00,VWS V13.01,2013-04-03 08:04:00,
2013-04-03 04:06:00,29.3,9.1,29.32,WNW,292,3.4,3.4,42,0.00,,---,0.00,VWS V13.01,2013-04-03 08:06:00,
2013-04-03 04:08:00,29.3,9.1,29.32,West,270,3.8,3.8,42,0.00,,---,0.00,VWS V13.01,2013-04-03 08:08:00,
2013-04-03 04:09:00,28.9,9.3,29.32,West,270,3.8,3.8,43,0.00,,---,0.00,VWS V13.01,2013-04-03 08:09:00,
2013-04-03 04:12:00,28.9,9.3,29.32,ENE,68,2.9,2.9,43,0.00,,---,0.00,VWS V13.01,2013-04-03 08:12:00,
2013-04-03 04:13:00,28.9,9.3,29.32,WSW,248,0.0,1.6,43,0.00,,---,0.00,VWS V13.01,2013-04-03 08:13:00,
2013-04-03 04:14:00,28.9,9.3,29.32,WSW,248,0.0,1.6,43,0.00,,---,0.00,VWS V13.01,2013-04-03 08:14:00,
2013-04-03 04:17:00,28.9,9.3,29.32,North,0,0.0,0.0,43,0.00,,---,0.00,VWS V13.01,2013-04-03 08:17:00,
2013-04-03 04:18:00,29.1,9.4,29.32,South,180,0.0,0.0,43,0.00,,---,0.00,VWS V13.01,2013-04-03 08:18:00,
2013-04-03 04:19:00,29.1,9.4,29.32,WSW,248,2.9,2.9,43,0.00,,---,0.00,VWS V13.01,2013-04-03 08:19:00,
2013-04-03 04:22:00,28.9,9.3,29.32,SSW,202,2.5,2.5,43,0.00,,---,0.00,VWS V13.01,2013-04-03 08:22:00,
2013-04-03 04:24:00,28.9,9.3,29.32,WNW,292,3.6,3.6,43,0.00,,---,0.00,VWS V13.01,2013-04-03 08:24:00,
2013-04-03 04:27:00,28.9,9.3,29.32,West,270,2.0,6.3,43,0.00,,---,0.00,VWS V13.01,2013-04-03 08:27:00,
2013-04-03 04:29:00,28.9,9.3,29.32,West,270,2.2,2.2,43,0.00,,---,0.00,VWS V13.01,2013-04-03 08:29:00,
2013-04-03 04:32:00,28.8,9.1,29.32,WNW,292,1.1,1.1,43,0.00,,---,0.00,VWS V13.01,2013-04-03 08:32:00,
2013-04-03 04:34:00,28.8,9.1,29.32,WSW,248,2.5,2.5,43,0.00,,---,0.00,VWS V13.01,2013-04-03 08:34:00,
2013-04-03 04:37:00,28.9,9.3,29.32,WSW,248,2.2,2.2,43,0.00,,---,0.00,VWS V13.01,2013-04-03 08:37:00,
2013-04-03 04:39:00,28.9,9.3,29.32,WSW,248,4.0,4.0,43,0.00,,---,0.00,VWS V13.01,2013-04-03 08:39:00,
2013-04-03 04:40:00,28.9,9.3,29.32,West,270,2.0,4.0,43,0.00,,---,0.00,VWS V13.01,2013-04-03 08:40:00,
2013-04-03 04:42:00,28.9,9.3,29.32,WSW,248,2.7,3.1,43,0.00,,---,0.00,VWS V13.01,2013-04-03 08:42:00,
2013-04-03 04:44:00,28.9,9.8,29.32,WNW,292,2.5,2.5,44,0.00,,---,0.00,VWS V13.01,2013-04-03 08:44:00,
2013-04-03 04:45:00,28.9,9.8,29.32,SW,225,3.1,3.1,44,0.00,,---,0.00,VWS V13.01,2013-04-03 08:45:00,
2013-04-03 04:48:00,28.9,9.8,29.32,WSW,248,0.0,3.4,44,0.00,,---,0.00,VWS V13.01,2013-04-03 08:48:00,
2013-04-03 04:49:00,28.9,9.8,29.32,WNW,292,3.6,3.6,44,0.00,,---,0.00,VWS V13.01,2013-04-03 08:49:00,
2013-04-03 04:50:00,28.9,9.8,29.32,WNW,292,3.6,3.6,44,0.00,,---,0.00,VWS V13.01,2013-04-03 08:50:00,
2013-04-03 04:53:00,28.8,9.6,29.32,SW,225,0.0,0.0,44,0.00,,---,0.00,VWS V13.01,2013-04-03 08:53:00,
2013-04-03 04:54:00,28.8,9.6,29.32,WNW,292,2.7,2.7,44,0.00,,---,0.00,VWS V13.01,2013-04-03 08:54:00,
2013-04-03 04:55:00,28.8,9.6,29.32,WNW,292,1.3,2.7,44,0.00,,---,0.00,VWS V13.01,2013-04-03 08:55:00,
2013-04-03 04:58:00,28.8,9.6,29.32,West,270,4.0,4.0,44,0.00,,---,0.00,VWS V13.01,2013-04-03 08:58:00,
2013-04-03 04:59:00,28.8,9.6,29.32,West,270,4.0,4.0,44,0.00,,---,0.00,VWS V13.01,2013-04-03 08:59:00,
2013-04-03 05:00:00,28.8,9.6,29.32,SW,225,1.6,1.6,44,0.00,,---,0.00,VWS V13.01,2013-04-03 09:00:00,
2013-04-03 05:03:00,28.8,9.6,29.32,SW,225,2.9,2.9,44,0.00,,---,0.00,VWS V13.01,2013-04-03 09:03:00,
2013-04-03 05:05:00,28.8,9.6,29.32,WSW,248,3.4,3.4,44,0.00,,---,0.00,VWS V13.01,2013-04-03 09:05:00,
2013-04-03 05:06:00,28.8,9.6,29.32,NE,45,0.0,3.4,44,0.00,,---,0.00,VWS V13.01,2013-04-03 09:06:00,
2013-04-03 05:07:00,28.8,9.6,29.32,WSW,248,2.9,2.9,44,0.00,,---,0.00,VWS V13.01,2013-04-03 09:07:00,
2013-04-03 05:08:00,28.8,9.6,29.32,WSW,248,3.8,3.8,44,0.00,,---,0.00,VWS V13.01,2013-04-03 09:08:00,
2013-04-03 05:10:00,28.8,9.6,29.32,WSW,248,4.0,4.0,44,0.00,,---,0.00,VWS V13.01,2013-04-03 09:10:00,
2013-04-03 05:11:00,28.8,9.6,29.32,WSW,248,3.6,4.0,44,0.00,,---,0.00,VWS V13.01,2013-04-03 09:11:00,
2013-04-03 05:12:00,28.8,9.6,29.32,NNE,22,3.6,4.0,44,0.00,,---,0.00,VWS V13.01,2013-04-03 09:12:00,
2013-04-03 05:13:00,28.8,9.6,29.32,NE,45,4.0,4.0,44,0.00,,---,0.00,VWS V13.01,2013-04-03 09:13:00,
2013-04-03 05:15:00,28.8,9.6,29.32,WSW,248,2.5,2.5,44,0.00,,---,0.00,VWS V13.01,2013-04-03 09:15:00,
2013-04-03 05:16:00,28.8,9.6,29.32,NE,45,4.0,4.0,44,0.00,,---,0.00,VWS V13.01,2013-04-03 09:16:00,
2013-04-03 05:17:00,28.8,9.6,29.32,NE,45,4.0,4.0,44,0.00,,---,0.00,VWS V13.01,2013-04-03 09:17:00,
2013-04-03 05:18:00,28.8,9.6,29.32,West,270,1.3,2.9,44,0.00,,---,0.00,VWS V13.01,2013-04-03 09:18:00,
2013-04-03 05:20:00,28.8,9.6,29.32,SW,225,0.0,0.0,44,0.00,,---,0.00,VWS V13.01,2013-04-03 09:20:00,
2013-04-03 05:22:00,28.8,9.6,29.32,West,270,2.0,2.0,44,0.00,,---,0.00,VWS V13.01,2013-04-03 09:22:00,
2013-04-03 05:23:00,28.8,9.6,29.32,SW,225,2.9,3.6,44,0.00,,---,0.00,VWS V13.01,2013-04-03 09:23:00,
2013-04-03 05:26:00,28.6,9.4,29.32,West,270,0.9,1.6,44,0.00,,---,0.00,VWS V13.01,2013-04-03 09:26:00,
2013-04-03 05:27:00,28.6,9.4,29.32,WNW,292,0.0,0.9,44,0.00,,---,0.00,VWS V13.01,2013-04-03 09:27:00,
2013-04-03 05:29:00,28.6,9.4,29.32,West,270,1.1,1.1,44,0.00,,---,0.00,VWS V13.01,2013-04-03 09:29:00,
2013-04-03 05:31:00,28.6,9.4,29.32,North,0,3.4,3.4,44,0.00,,---,0.00,VWS V13.01,2013-04-03 09:31:00,
2013-04-03 05:32:00,28.6,9.4,29.35,WSW,248,6.3,6.3,44,0.00,,---,0.00,VWS V13.01,2013-04-03 09:32:00,
2013-04-03 05:34:00,28.6,9.4,29.35,WNW,292,3.1,4.0,44,0.00,,---,0.00,VWS V13.01,2013-04-03 09:34:00,
2013-04-03 05:37:00,28.6,9.4,29.35,East,90,0.0,2.0,44,0.00,,---,0.00,VWS V13.01,2013-04-03 09:37:00,
2013-04-03 05:39:00,28.6,9.4,29.35,SW,225,0.0,1.1,44,0.00,,---,0.00,VWS V13.01,2013-04-03 09:39:00,
2013-04-03 05:42:00,28.6,9.4,29.35,WSW,248,2.7,2.7,44,0.00,,---,0.00,VWS V13.01,2013-04-03 09:42:00,
2013-04-03 05:43:00,28.6,9.4,29.35,WSW,248,1.6,2.7,44,0.00,,---,0.00,VWS V13.01,2013-04-03 09:43:00,
2013-04-03 05:44:00,28.6,9.4,29.35,WNW,292,1.1,1.1,44,0.00,,---,0.00,VWS V13.01,2013-04-03 09:44:00,
2013-04-03 05:47:00,28.6,9.4,29.35,West,270,1.1,2.9,44,0.00,,---,0.00,VWS V13.01,2013-04-03 09:47:00,
2013-04-03 05:48:00,28.6,9.4,29.35,WSW,248,2.9,2.9,44,0.00,,---,0.00,VWS V13.01,2013-04-03 09:48:00,
2013-04-03 05:49:00,28.6,9.4,29.35,SSW,202,1.1,2.0,44,0.00,,---,0.00,VWS V13.01,2013-04-03 09:49:00,
2013-04-03 05:52:00,28.6,9.4,29.35,WSW,248,1.6,3.4,44,0.00,,---,0.00,VWS V13.01,2013-04-03 09:52:00,
2013-04-03 05:53:00,28.6,9.4,29.35,WSW,248,1.6,3.4,44,0.00,,---,0.00,VWS V13.01,2013-04-03 09:53:00,
2013-04-03 05:54:00,28.6,9.4,29.35,West,270,1.1,2.5,44,0.00,,---,0.00,VWS V13.01,2013-04-03 09:54:00,
2013-04-03 05:57:00,28.4,9.3,29.35,SW,225,3.4,3.4,44,0.00,,---,0.00,VWS V13.01,2013-04-03 09:57:00,
2013-04-03 05:58:00,28.4,9.3,29.35,WSW,248,3.1,3.4,44,0.00,,---,0.00,VWS V13.01,2013-04-03 09:58:00,
2013-04-03 06:00:00,28.4,9.3,29.35,WNW,292,2.5,3.1,44,0.00,,---,0.00,VWS V13.01,2013-04-03 10:00:00,
2013-04-03 06:03:00,28.4,9.3,29.35,WSW,248,1.1,2.7,44,0.00,,---,0.00,VWS V13.01,2013-04-03 10:03:00,
2013-04-03 06:05:00,28.4,9.3,29.35,West,270,2.7,2.7,44,0.00,,---,0.00,VWS V13.01,2013-04-03 10:05:00,
2013-04-03 06:08:00,28.4,9.3,29.35,WSW,248,0.9,2.9,44,0.00,,---,0.00,VWS V13.01,2013-04-03 10:08:00,
2013-04-03 06:10:00,28.4,9.3,29.35,WSW,248,1.1,1.1,44,0.00,,---,0.00,VWS V13.01,2013-04-03 10:10:00,
2013-04-03 06:13:00,28.4,9.3,29.35,WSW,248,3.4,3.4,44,0.00,,---,0.00,VWS V13.01,2013-04-03 10:13:00,
2013-04-03 06:15:00,28.4,9.8,29.35,WSW,248,2.0,2.0,45,0.00,,---,0.00,VWS V13.01,2013-04-03 10:15:00,
2013-04-03 06:18:00,28.2,9.6,29.35,WNW,292,2.2,2.2,45,0.00,,---,0.00,VWS V13.01,2013-04-03 10:18:00,
2013-04-03 06:20:00,28.2,9.6,29.35,WNW,292,1.3,1.6,45,0.00,,---,0.00,VWS V13.01,2013-04-03 10:20:00,
2013-04-03 06:23:00,28.2,9.6,29.35,WNW,292,4.0,4.0,45,0.00,,---,0.00,VWS V13.01,2013-04-03 10:23:00,
2013-04-03 06:24:00,28.2,9.6,29.35,West,270,1.6,4.0,45,0.00,,---,0.00,VWS V13.01,2013-04-03 10:24:00,
2013-04-03 06:25:00,28.2,9.6,29.35,West,270,1.6,1.6,45,0.00,,---,0.00,VWS V13.01,2013-04-03 10:25:00,
2013-04-03 06:28:00,28.2,9.6,29.35,NW,315,4.0,4.0,45,0.00,,---,0.00,VWS V13.01,2013-04-03 10:28:00,
2013-04-03 06:29:00,28.2,9.6,29.35,NW,315,4.0,4.0,45,0.00,,---,0.00,VWS V13.01,2013-04-03 10:29:00,
2013-04-03 06:30:00,28.2,9.6,29.35,WSW,248,2.7,2.7,45,0.00,,---,0.00,VWS V13.01,2013-04-03 10:30:00,
2013-04-03 06:33:00,28.2,9.6,29.35,WNW,292,3.1,3.1,45,0.00,,---,0.00,VWS V13.01,2013-04-03 10:33:00,
2013-04-03 06:34:00,28.2,9.6,29.35,WSW,248,2.5,3.1,45,0.00,,---,0.00,VWS V13.01,2013-04-03 10:34:00,
2013-04-03 06:35:00,28.2,9.6,29.35,WNW,292,3.8,3.8,45,0.00,,---,0.00,VWS V13.01,2013-04-03 10:35:00,
2013-04-03 06:38:00,28.2,9.6,29.35,SW,225,3.1,3.1,45,0.00,,---,0.00,VWS V13.01,2013-04-03 10:38:00,
2013-04-03 06:39:00,28.2,9.6,29.35,WSW,248,2.7,2.7,45,0.00,,---,0.00,VWS V13.01,2013-04-03 10:39:00,
2013-04-03 06:41:00,28.2,9.6,29.35,WNW,292,3.1,4.0,45,0.00,,---,0.00,VWS V13.01,2013-04-03 10:41:00,
2013-04-03 06:43:00,28.2,9.6,29.35,WSW,248,4.3,4.9,45,0.00,,---,0.00,VWS V13.01,2013-04-03 10:43:00,
2013-04-03 06:44:00,28.2,9.6,29.35,WSW,248,3.6,4.3,45,0.00,,---,0.00,VWS V13.01,2013-04-03 10:44:00,
2013-04-03 06:46:00,28.2,9.6,29.35,SSE,158,0.0,3.6,45,0.00,,---,0.00,VWS V13.01,2013-04-03 10:46:00,
2013-04-03 06:48:00,28.6,9.4,29.35,South,180,0.0,0.9,44,0.00,,---,0.00,VWS V13.01,2013-04-03 10:48:00,
2013-04-03 06:49:00,28.6,9.4,29.35,WNW,292,0.0,0.0,44,0.00,,---,0.00,VWS V13.01,2013-04-03 10:49:00,
2013-04-03 06:50:00,28.6,9.4,29.38,SSW,202,0.9,0.9,44,0.00,,---,0.00,VWS V13.01,2013-04-03 10:50:00,
2013-04-03 06:51:00,28.6,9.4,29.38,SE,135,0.0,0.9,44,0.00,,---,0.00,VWS V13.01,2013-04-03 10:51:00,
2013-04-03 06:54:00,28.6,9.4,29.38,West,270,0.0,3.6,44,0.00,,---,0.00,VWS V13.01,2013-04-03 10:54:00,
2013-04-03 06:55:00,28.6,9.4,29.38,WSW,248,2.7,2.7,44,0.00,,---,0.00,VWS V13.01,2013-04-03 10:55:00,
2013-04-03 06:56:00,28.6,9.4,29.38,WSW,248,3.8,3.8,44,0.00,,---,0.00,VWS V13.01,2013-04-03 10:56:00,
2013-04-03 06:59:00,28.6,9.4,29.38,WSW,248,3.1,3.1,44,0.00,,---,0.00,VWS V13.01,2013-04-03 10:59:00,
2013-04-03 07:00:00,28.6,9.4,29.38,South,180,1.6,3.1,44,0.00,,---,0.00,VWS V13.01,2013-04-03 11:00:00,
2013-04-03 07:01:00,28.6,9.4,29.38,NW,315,1.1,1.6,44,0.00,,---,0.00,VWS V13.01,2013-04-03 11:01:00,
2013-04-03 07:04:00,28.6,9.4,29.38,WNW,292,2.7,2.7,44,0.00,,---,0.00,VWS V13.01,2013-04-03 11:04:00,
2013-04-03 07:05:00,28.6,9.4,29.38,WNW,292,2.7,2.7,44,0.00,,---,0.00,VWS V13.01,2013-04-03 11:05:00,
2013-04-03 07:07:00,28.6,9.4,29.38,SW,225,1.1,1.1,44,0.00,,---,0.00,VWS V13.01,2013-04-03 11:07:00,
2013-04-03 07:09:00,28.6,9.4,29.38,WNW,292,4.0,4.0,44,0.00,,---,0.00,VWS V13.01,2013-04-03 11:09:00,
2013-04-03 07:10:00,28.6,9.4,29.38,WSW,248,0.0,4.0,44,0.00,,---,0.00,VWS V13.01,2013-04-03 11:10:00,
2013-04-03 07:12:00,28.8,10.1,29.38,WNW,292,3.4,3.4,45,0.00,,---,0.00,VWS V13.01,2013-04-03 11:12:00,
2013-04-03 07:14:00,28.8,10.1,29.38,North,0,1.6,2.7,45,0.00,,---,0.00,VWS V13.01,2013-04-03 11:14:00,
2013-04-03 07:15:00,28.8,10.1,29.38,North,0,1.6,2.7,45,0.00,,---,0.00,VWS V13.01,2013-04-03 11:15:00,
2013-04-03 07:17:00,28.8,10.1,29.38,WSW,248,0.0,2.9,45,0.00,,---,0.00,VWS V13.01,2013-04-03 11:17:00,
2013-04-03 07:19:00,28.8,10.1,29.38,South,180,1.3,1.3,45,0.00,,---,0.00,VWS V13.01,2013-04-03 11:19:00,
2013-04-03 07:20:00,28.8,10.1,29.38,NNW,338,0.0,1.3,45,0.00,,---,0.00,VWS V13.01,2013-04-03 11:20:00,
2013-04-03 07:22:00,28.9,10.3,29.38,North,0,2.5,2.5,45,0.00,,---,0.00,VWS V13.01,2013-04-03 11:22:00,
2013-04-03 07:25:00,28.9,10.3,29.38,SSW,202,0.9,0.9,45,0.00,,---,0.00,VWS V13.01,2013-04-03 11:25:00,
2013-04-03 07:26:00,28.9,10.3,29.38,SW,225,1.1,1.1,45,0.00,,---,0.00,VWS V13.01,2013-04-03 11:26:00,
2013-04-03 07:27:00,28.9,10.3,29.38,NE,45,1.6,1.6,45,0.00,,---,0.00,VWS V13.01,2013-04-03 11:27:00,
2013-04-03 07:30:00,28.9,10.3,29.38,West,270,5.6,5.6,45,0.00,,---,0.00,VWS V13.01,2013-04-03 11:30:00,
2013-04-03 07:31:00,28.9,10.3,29.38,West,270,3.4,5.6,45,0.00,,---,0.00,VWS V13.01,2013-04-03 11:31:00,
2013-04-03 07:32:00,28.9,10.3,29.38,West,270,3.1,5.6,45,0.00,,---,0.00,VWS V13.01,2013-04-03 11:32:00,
2013-04-03 07:35:00,28.9,10.3,29.38,West,270,1.6,1.6,45,0.00,,---,0.00,VWS V13.01,2013-04-03 11:35:00,
2013-04-03 07:36:00,29.5,10.8,29.38,SSW,202,0.9,1.1,45,0.00,,---,0.00,VWS V13.01,2013-04-03 11:36:00,
2013-04-03 07:37:00,29.5,10.8,29.38,SSW,202,0.9,1.1,45,0.00,,---,0.00,VWS V13.01,2013-04-03 11:37:00,
2013-04-03 07:40:00,29.5,10.8,29.38,NNE,22,1.1,1.1,45,0.00,,---,0.00,VWS V13.01,2013-04-03 11:40:00,
2013-04-03 07:42:00,29.5,10.8,29.38,West,270,1.3,2.5,45,0.00,,---,0.00,VWS V13.01,2013-04-03 11:42:00,
2013-04-03 07:45:00,29.7,10.9,29.38,NNE,22,2.0,2.2,45,0.00,,---,0.00,VWS V13.01,2013-04-03 11:45:00,
2013-04-03 07:47:00,29.7,10.9,29.38,NE,45,1.3,1.3,45,0.00,,---,0.00,VWS V13.01,2013-04-03 11:47:00,
2013-04-03 07:48:00,29.7,10.9,29.38,North,0,5.4,5.4,45,0.00,,---,0.00,VWS V13.01,2013-04-03 11:48:00,
2013-04-03 07:50:00,29.7,10.9,29.38,North,0,3.1,3.1,45,0.00,,---,0.00,VWS V13.01,2013-04-03 11:50:00,
2013-04-03 07:52:00,30.0,10.8,29.38,NNE,22,3.4,3.4,44,0.00,,---,0.00,VWS V13.01,2013-04-03 11:52:00,
2013-04-03 07:53:00,30.0,10.8,29.38,NNE,22,3.4,3.4,44,0.00,,---,0.00,VWS V13.01,2013-04-03 11:53:00,
2013-04-03 07:55:00,30.0,10.8,29.38,WNW,292,5.6,5.6,44,0.00,,---,0.00,VWS V13.01,2013-04-03 11:55:00,
2013-04-03 07:57:00,30.0,10.8,29.38,West,270,3.6,5.6,44,0.00,,---,0.00,VWS V13.01,2013-04-03 11:57:00,
2013-04-03 07:58:00,30.0,10.8,29.38,SW,225,2.9,3.6,44,0.00,,---,0.00,VWS V13.01,2013-04-03 11:58:00,
2013-04-03 08:01:00,30.0,10.8,29.38,NW,315,2.0,2.0,44,0.00,,---,0.00,VWS V13.01,2013-04-03 12:01:00,
2013-04-03 08:02:00,30.0,10.8,29.38,WSW,248,1.3,2.0,44,0.00,,---,0.00,VWS V13.01,2013-04-03 12:02:00,
2013-04-03 08:03:00,30.0,10.8,29.38,SSW,202,1.6,1.6,44,0.00,,---,0.00,VWS V13.01,2013-04-03 12:03:00,
2013-04-03 08:04:00,30.4,11.1,29.38,West,270,0.9,0.9,44,0.00,,---,0.00,VWS V13.01,2013-04-03 12:04:00,
2013-04-03 08:07:00,30.4,11.1,29.38,West,270,2.7,2.7,44,0.00,,---,0.00,VWS V13.01,2013-04-03 12:07:00,
2013-04-03 08:08:00,30.4,11.1,29.38,East,90,2.5,2.7,44,0.00,,---,0.00,VWS V13.01,2013-04-03 12:08:00,
2013-04-03 08:09:00,30.4,11.1,29.38,NW,315,2.2,2.5,44,0.00,,---,0.00,VWS V13.01,2013-04-03 12:09:00,
2013-04-03 08:12:00,30.4,11.1,29.38,North,0,2.0,2.5,44,0.00,,---,0.00,VWS V13.01,2013-04-03 12:12:00,
2013-04-03 08:13:00,30.4,11.1,29.38,West,270,3.8,3.8,44,0.00,,---,0.00,VWS V13.01,2013-04-03 12:13:00,
2013-04-03 08:14:00,30.4,11.1,29.38,West,270,3.8,3.8,44,0.00,,---,0.00,VWS V13.01,2013-04-03 12:14:00,
2013-04-03 08:17:00,30.4,11.1,29.38,WNW,292,6.0,6.0,44,0.00,,---,0.00,VWS V13.01,2013-04-03 12:17:00,
2013-04-03 08:18:00,30.4,11.1,29.38,WNW,292,6.0,6.0,44,0.00,,---,0.00,VWS V13.01,2013-04-03 12:18:00,
2013-04-03 08:19:00,30.4,11.1,29.38,WNW,292,2.0,6.0,44,0.00,,---,0.00,VWS V13.01,2013-04-03 12:19:00,
2013-04-03 08:22:00,30.4,11.1,29.38,SSE,158,2.0,4.7,44,0.00,,---,0.00,VWS V13.01,2013-04-03 12:22:00,
2013-04-03 08:23:00,30.4,11.1,29.38,NNW,338,1.3,2.0,44,0.00,,---,0.00,VWS V13.01,2013-04-03 12:23:00,
2013-04-03 08:24:00,30.4,11.1,29.38,NNW,338,1.3,2.0,44,0.00,,---,0.00,VWS V13.01,2013-04-03 12:24:00,
2013-04-03 08:27:00,31.5,12.1,29.38,SW,225,3.1,3.1,44,0.00,,---,0.00,VWS V13.01,2013-04-03 12:27:00,
2013-04-03 08:28:00,31.5,12.1,29.38,West,270,2.5,2.5,44,0.00,,---,0.00,VWS V13.01,2013-04-03 12:28:00,
2013-04-03 08:29:00,31.5,12.1,29.38,WNW,292,2.7,2.7,44,0.00,,---,0.00,VWS V13.01,2013-04-03 12:29:00,
2013-04-03 08:33:00,32.2,12.7,29.38,NW,315,1.1,2.7,44,0.00,,---,0.00,VWS V13.01,2013-04-03 12:33:00,
2013-04-03 08:34:00,32.2,12.7,29.38,NW,315,1.1,1.1,44,0.00,,---,0.00,VWS V13.01,2013-04-03 12:34:00,
2013-04-03 08:35:00,32.2,12.7,29.38,NNE,22,0.9,1.1,44,0.00,,---,0.00,VWS V13.01,2013-04-03 12:35:00,
2013-04-03 08:38:00,32.2,12.7,29.38,North,0,3.6,3.8,44,0.00,,---,0.00,VWS V13.01,2013-04-03 12:38:00,
2013-04-03 08:39:00,32.2,12.7,29.38,ENE,68,2.0,3.6,44,0.00,,---,0.00,VWS V13.01,2013-04-03 12:39:00,
2013-04-03 08:40:00,32.2,12.7,29.38,West,270,2.9,2.9,44,0.00,,---,0.00,VWS V13.01,2013-04-03 12:40:00,
2013-04-03 08:43:00,32.2,12.7,29.38,West,270,6.0,6.0,44,0.00,,---,0.00,VWS V13.01,2013-04-03 12:43:00,
2013-04-03 08:44:00,32.2,12.7,29.38,SSW,202,2.5,6.0,44,0.00,,---,0.00,VWS V13.01,2013-04-03 12:44:00,
2013-04-03 08:45:00,32.2,12.7,29.38,WNW,292,2.9,2.9,44,0.00,,---,0.00,VWS V13.01,2013-04-03 12:45:00,
2013-04-03 08:48:00,32.2,12.7,29.38,North,0,4.0,4.0,44,0.00,,---,0.00,VWS V13.01,2013-04-03 12:48:00,
2013-04-03 08:49:00,32.2,12.7,29.38,NNW,338,4.3,4.3,44,0.00,,---,0.00,VWS V13.01,2013-04-03 12:49:00,
2013-04-03 08:50:00,32.5,12.5,29.38,WSW,248,3.6,4.3,43,0.00,,---,0.00,VWS V13.01,2013-04-03 12:50:00,
2013-04-03 08:53:00,32.5,12.5,29.38,East,90,2.0,2.0,43,0.00,,---,0.00,VWS V13.01,2013-04-03 12:53:00,
2013-04-03 08:54:00,32.5,12.5,29.38,North,0,4.0,4.0,43,0.00,,---,0.00,VWS V13.01,2013-04-03 12:54:00,
2013-04-03 08:55:00,32.5,12.5,29.38,NE,45,1.6,1.6,43,0.00,,---,0.00,VWS V13.01,2013-04-03 12:55:00,
2013-04-03 08:58:00,32.5,12.5,29.38,SW,225,3.1,3.1,43,0.00,,---,0.00,VWS V13.01,2013-04-03 12:58:00,
2013-04-03 08:59:00,32.5,12.5,29.38,SW,225,3.1,3.1,43,0.00,,---,0.00,VWS V13.01,2013-04-03 12:59:00,
2013-04-03 09:00:00,32.5,12.5,29.38,WSW,248,3.1,3.1,43,0.00,,---,0.00,VWS V13.01,2013-04-03 13:00:00,
2013-04-03 09:03:00,32.5,12.5,29.38,WSW,248,2.5,3.6,43,0.00,,---,0.00,VWS V13.01,2013-04-03 13:03:00,
2013-04-03 09:04:00,32.5,12.5,29.38,West,270,3.1,3.1,43,0.00,,---,0.00,VWS V13.01,2013-04-03 13:04:00,
2013-04-03 09:05:00,32.5,12.5,29.38,WSW,248,2.9,3.1,43,0.00,,---,0.00,VWS V13.01,2013-04-03 13:05:00,
2013-04-03 09:08:00,33.4,13.4,29.38,WNW,292,4.0,4.7,43,0.00,,---,0.00,VWS V13.01,2013-04-03 13:08:00,
2013-04-03 09:09:00,33.4,13.4,29.38,WNW,292,4.0,4.0,43,0.00,,---,0.00,VWS V13.01,2013-04-03 13:09:00,
2013-04-03 09:10:00,33.4,13.4,29.38,WSW,248,0.9,0.9,43,0.00,,---,0.00,VWS V13.01,2013-04-03 13:10:00,
2013-04-03 09:14:00,33.4,13.4,29.38,WNW,292,4.3,4.3,43,0.00,,---,0.00,VWS V13.01,2013-04-03 13:14:00,
2013-04-03 09:15:00,33.4,13.4,29.38,West,270,2.5,3.4,43,0.00,,---,0.00,VWS V13.01,2013-04-03 13:15:00,
2013-04-03 09:19:00,33.8,13.1,29.38,West,270,4.5,4.5,42,0.00,,---,0.00,VWS V13.01,2013-04-03 13:19:00,
2013-04-03 09:20:00,33.8,13.1,29.38,West,270,4.5,4.5,42,0.00,,---,0.00,VWS V13.01,2013-04-03 13:20:00,
2013-04-03 09:21:00,33.8,13.1,29.38,WNW,292,6.3,6.3,42,0.00,,---,0.00,VWS V13.01,2013-04-03 13:21:00,
2013-04-03 09:24:00,33.8,13.1,29.38,West,270,1.6,1.6,42,0.00,,---,0.00,VWS V13.01,2013-04-03 13:24:00,
2013-04-03 09:25:00,33.8,13.1,29.38,West,270,4.3,4.3,42,0.00,,---,0.00,VWS V13.01,2013-04-03 13:25:00,
2013-04-03 09:27:00,33.8,13.1,29.38,West,270,6.3,6.3,42,0.00,,---,0.00,VWS V13.01,2013-04-03 13:27:00,
2013-04-03 09:29:00,33.8,13.1,29.38,WNW,292,1.3,4.0,42,0.00,,---,0.00,VWS V13.01,2013-04-03 13:29:00,
2013-04-03 09:30:00,33.8,13.1,29.38,NW,315,0.0,0.0,42,0.00,,---,0.00,VWS V13.01,2013-04-03 13:30:00,
2013-04-03 09:32:00,33.8,13.1,29.38,SSW,202,5.8,5.8,42,0.00,,---,0.00,VWS V13.01,2013-04-03 13:32:00,
2013-04-03 09:34:00,33.8,13.1,29.38,South,180,2.9,2.9,42,0.00,,---,0.00,VWS V13.01,2013-04-03 13:34:00,
2013-04-03 09:35:00,33.8,13.1,29.38,NE,45,1.1,1.1,42,0.00,,---,0.00,VWS V13.01,2013-04-03 13:35:00,
2013-04-03 09:38:00,33.8,13.1,29.38,NW,315,2.7,2.9,42,0.00,,---,0.00,VWS V13.01,2013-04-03 13:38:00,
2013-04-03 09:39:00,33.8,13.1,29.38,WNW,292,5.8,5.8,42,0.00,,---,0.00,VWS V13.01,2013-04-03 13:39:00,
2013-04-03 09:41:00,33.8,13.1,29.38,West,270,1.3,3.6,42,0.00,,---,0.00,VWS V13.01,2013-04-03 13:41:00,
2013-04-03 09:43:00,33.8,13.1,29.38,WNW,292,2.5,4.3,42,0.00,,---,0.00,VWS V13.01,2013-04-03 13:43:00,
2013-04-03 09:44:00,33.8,13.1,29.38,NNE,22,1.3,2.9,42,0.00,,---,0.00,VWS V13.01,2013-04-03 13:44:00,
2013-04-03 09:46:00,33.8,13.1,29.38,North,0,2.9,2.9,42,0.00,,---,0.00,VWS V13.01,2013-04-03 13:46:00,
2013-04-03 09:48:00,33.8,13.1,29.38,West,270,2.9,2.9,42,0.00,,---,0.00,VWS V13.01,2013-04-03 13:48:00,
2013-04-03 09:49:00,33.8,13.1,29.38,West,270,2.5,2.5,42,0.00,,---,0.00,VWS V13.01,2013-04-03 13:49:00,
2013-04-03 09:51:00,34.3,13.6,29.38,WNW,292,4.3,4.7,42,0.00,,---,0.00,VWS V13.01,2013-04-03 13:51:00,
2013-04-03 09:52:00,34.5,13.8,29.38,South,180,1.6,4.3,42,0.00,,---,0.00,VWS V13.01,2013-04-03 13:52:00,
2013-04-03 09:53:00,34.5,13.8,29.38,WNW,292,1.6,1.6,42,0.00,,---,0.00,VWS V13.01,2013-04-03 13:53:00,
2013-04-03 09:54:00,34.5,13.8,29.38,West,270,2.7,2.7,42,0.00,,---,0.00,VWS V13.01,2013-04-03 13:54:00,
2013-04-03 09:56:00,34.5,13.8,29.38,SSW,202,3.4,5.6,42,0.00,,---,0.00,VWS V13.01,2013-04-03 13:56:00,
2013-04-03 09:57:00,34.5,13.8,29.38,WNW,292,2.0,2.0,42,0.00,,---,0.00,VWS V13.01,2013-04-03 13:57:00,
2013-04-03 09:58:00,34.5,13.8,29.38,WSW,248,3.4,6.0,42,0.00,,---,0.00,VWS V13.01,2013-04-03 13:58:00,
2013-04-03 09:59:00,34.5,13.8,29.38,North,0,3.4,3.4,42,0.00,,---,0.00,VWS V13.01,2013-04-03 13:59:00,
2013-04-03 10:01:00,34.7,14.0,29.38,NW,315,4.0,4.7,42,0.00,,---,0.00,VWS V13.01,2013-04-03 14:01:00,
2013-04-03 10:02:00,34.7,14.0,29.38,NW,315,4.0,4.0,42,0.00,,---,0.00,VWS V13.01,2013-04-03 14:02:00,
2013-04-03 10:03:00,34.7,14.0,29.38,North,0,3.8,3.8,42,0.00,,---,0.00,VWS V13.01,2013-04-03 14:03:00,
2013-04-03 10:04:00,34.7,14.0,29.38,NNW,338,1.3,1.3,42,0.00,,---,0.00,VWS V13.01,2013-04-03 14:04:00,
2013-04-03 10:06:00,34.7,14.0,29.38,NW,315,1.6,2.0,42,0.00,,---,0.00,VWS V13.01,2013-04-03 14:06:00,
2013-04-03 10:07:00,34.7,14.0,29.38,NW,315,1.6,1.6,42,0.00,,---,0.00,VWS V13.01,2013-04-03 14:07:00,
2013-04-03 10:08:00,34.3,13.6,29.38,East,90,2.0,2.5,42,0.00,,---,0.00,VWS V13.01,2013-04-03 14:08:00,
2013-04-03 10:09:00,34.3,13.1,29.38,West,270,0.9,2.0,41,0.00,,---,0.00,VWS V13.01,2013-04-03 14:09:00,
2013-04-03 10:11:00,34.3,13.1,29.38,NNE,22,1.6,3.4,41,0.00,,---,0.00,VWS V13.01,2013-04-03 14:11:00,
2013-04-03 10:12:00,34.3,13.1,29.38,West,270,2.9,2.9,41,0.00,,---,0.00,VWS V13.01,2013-04-03 14:12:00,
2013-04-03 10:13:00,34.3,13.1,29.38,WNW,292,5.4,5.4,41,0.00,,---,0.00,VWS V13.01,2013-04-03 14:13:00,
2013-04-03 10:14:00,34.3,13.1,29.38,WNW,292,5.4,5.4,41,0.00,,---,0.00,VWS V13.01,2013-04-03 14:14:00,
2013-04-03 10:16:00,34.3,13.1,29.38,WNW,292,5.8,5.8,41,0.00,,---,0.00,VWS V13.01,2013-04-03 14:16:00,
2013-04-03 10:17:00,34.3,13.1,29.38,SSW,202,4.7,4.7,41,0.00,,---,0.00,VWS V13.01,2013-04-03 14:17:00,
2013-04-03 10:19:00,34.3,13.1,29.38,SW,225,1.3,4.7,41,0.00,,---,0.00,VWS V13.01,2013-04-03 14:19:00,
2013-04-03 10:20:00,34.3,13.1,29.38,WNW,292,3.1,3.1,41,0.00,,---,0.00,VWS V13.01,2013-04-03 14:20:00,
2013-04-03 10:21:00,34.3,13.1,29.38,West,270,3.6,5.6,41,0.00,,---,0.00,VWS V13.01,2013-04-03 14:21:00,
2013-04-03 10:22:00,34.3,13.1,29.38,WSW,248,2.7,3.6,41,0.00,,---,0.00,VWS V13.01,2013-04-03 14:22:00,
2013-04-03 10:24:00,34.3,13.1,29.38,WNW,292,3.8,3.8,41,0.00,,---,0.00,VWS V13.01,2013-04-03 14:24:00,
2013-04-03 10:25:00,34.3,13.1,29.38,WNW,292,3.8,3.8,41,0.00,,---,0.00,VWS V13.01,2013-04-03 14:25:00,
2013-04-03 10:27:00,34.3,13.1,29.38,South,180,2.2,3.8,41,0.00,,---,0.00,VWS V13.01,2013-04-03 14:27:00,
2013-04-03 10:29:00,34.3,13.1,29.38,West,270,2.0,3.4,41,0.00,,---,0.00,VWS V13.01,2013-04-03 14:29:00,
2013-04-03 10:30:00,34.3,13.1,29.38,NNW,338,2.0,2.0,41,0.00,,---,0.00,VWS V13.01,2013-04-03 14:30:00,
2013-04-03 10:32:00,34.3,13.1,29.38,North,0,2.0,2.0,41,0.00,,---,0.00,VWS V13.01,2013-04-03 14:32:00,
2013-04-03 10:33:00,34.3,13.1,29.38,West,270,2.9,2.9,41,0.00,,---,0.00,VWS V13.01,2013-04-03 14:33:00,
2013-04-03 10:34:00,34.3,13.1,29.38,NE,45,4.9,4.9,41,0.00,,---,0.00,VWS V13.01,2013-04-03 14:34:00,
2013-04-03 10:35:00,34.3,13.1,29.38,WNW,292,3.1,3.1,41,0.00,,---,0.00,VWS V13.01,2013-04-03 14:35:00,
2013-04-03 10:37:00,34.3,13.1,29.38,West,270,2.9,3.4,41,0.00,,---,0.00,VWS V13.01,2013-04-03 14:37:00,
2013-04-03 10:38:00,34.3,13.1,29.38,West,270,2.9,3.4,41,0.00,,---,0.00,VWS V13.01,2013-04-03 14:38:00,
2013-04-03 10:39:00,34.3,13.1,29.38,NE,45,5.6,5.6,41,0.00,,---,0.00,VWS V13.01,2013-04-03 14:39:00,
2013-04-03 10:40:00,34.3,13.1,29.38,ESE,112,2.7,5.6,41,0.00,,---,0.00,VWS V13.01,2013-04-03 14:40:00,
2013-04-03 10:42:00,35.2,13.9,29.38,WSW,248,5.4,5.4,41,0.00,,---,0.00,VWS V13.01,2013-04-03 14:42:00,
2013-04-03 10:43:00,35.2,13.9,29.38,WSW,248,5.4,5.4,41,0.00,,---,0.00,VWS V13.01,2013-04-03 14:43:00,
2013-04-03 10:44:00,35.2,13.9,29.38,NE,45,2.0,2.9,41,0.00,,---,0.00,VWS V13.01,2013-04-03 14:44:00,
2013-04-03 10:45:00,35.2,13.9,29.38,NW,315,1.3,1.3,41,0.00,,---,0.00,VWS V13.01,2013-04-03 14:45:00,
2013-04-03 10:48:00,35.2,13.9,29.38,NNW,338,1.3,2.2,41,0.00,,---,0.00,VWS V13.01,2013-04-03 14:48:00,
2013-04-03 10:49:00,35.2,13.9,29.38,WSW,248,4.0,4.0,41,0.00,,---,0.00,VWS V13.01,2013-04-03 14:49:00,
2013-04-03 10:50:00,35.2,13.9,29.38,East,90,4.0,4.0,41,0.00,,---,0.00,VWS V13.01,2013-04-03 14:50:00,
2013-04-03 10:53:00,35.2,13.9,29.38,WNW,292,3.1,3.1,41,0.00,,---,0.00,VWS V13.01,2013-04-03 14:53:00,
2013-04-03 10:54:00,35.8,13.8,29.38,North,0,4.9,5.8,40,0.00,,---,0.00,VWS V13.01,2013-04-03 14:54:00,
2013-04-03 10:56:00,35.8,13.8,29.38,West,270,3.6,4.9,40,0.00,,---,0.00,VWS V13.01,2013-04-03 14:56:00,
2013-04-03 10:58:00,35.8,13.8,29.38,NNW,338,2.7,2.7,40,0.00,,---,0.00,VWS V13.01,2013-04-03 14:58:00,
2013-04-03 10:59:00,35.8,13.8,29.38,NNW,338,2.7,2.7,40,0.00,,---,0.00,VWS V13.01,2013-04-03 14:59:00,
2013-04-03 11:01:00,35.8,13.8,29.38,North,0,4.7,4.7,40,0.00,,---,0.00,VWS V13.01,2013-04-03 15:01:00,
2013-04-03 11:03:00,35.8,13.8,29.38,NE,45,2.9,2.9,40,0.00,,---,0.00,VWS V13.01,2013-04-03 15:03:00,
2013-04-03 11:04:00,35.8,13.8,29.38,WNW,292,2.7,2.9,40,0.00,,---,0.00,VWS V13.01,2013-04-03 15:04:00,
2013-04-03 11:06:00,35.8,13.8,29.38,SSE,158,0.0,1.6,40,0.00,,---,0.00,VWS V13.01,2013-04-03 15:06:00,
2013-04-03 11:08:00,35.8,13.8,29.38,WSW,248,2.7,2.7,40,0.00,,---,0.00,VWS V13.01,2013-04-03 15:08:00,
2013-04-03 11:09:00,35.8,13.8,29.38,WSW,248,2.7,2.7,40,0.00,,---,0.00,VWS V13.01,2013-04-03 15:09:00,
2013-04-03 11:12:00,35.8,13.8,29.38,NNW,338,2.2,3.4,40,0.00,,---,0.00,VWS V13.01,2013-04-03 15:12:00,
2013-04-03 11:13:00,35.8,13.8,29.38,NE,45,1.3,1.3,40,0.00,,---,0.00,VWS V13.01,2013-04-03 15:13:00,
2013-04-03 11:14:00,35.8,13.8,29.38,WSW,248,2.0,2.0,40,0.00,,---,0.00,VWS V13.01,2013-04-03 15:14:00,
2013-04-03 11:17:00,36.3,14.3,29.38,WSW,248,2.9,2.9,40,0.00,,---,0.00,VWS V13.01,2013-04-03 15:17:00,
2013-04-03 11:18:00,36.7,14.6,29.38,North,0,4.7,4.7,40,0.00,,---,0.00,VWS V13.01,2013-04-03 15:18:00,
2013-04-03 11:19:00,36.7,14.6,29.38,North,0,4.7,4.7,40,0.00,,---,0.00,VWS V13.01,2013-04-03 15:19:00,
2013-04-03 11:20:00,36.7,14.6,29.38,WSW,248,3.4,4.7,40,0.00,,---,0.00,VWS V13.01,2013-04-03 15:20:00,
2013-04-03 11:22:00,36.7,14.6,29.38,NNW,338,2.2,2.2,40,0.00,,---,0.00,VWS V13.01,2013-04-03 15:22:00,
2013-04-03 11:24:00,36.7,14.6,29.38,WNW,292,3.8,4.0,40,0.00,,---,0.00,VWS V13.01,2013-04-03 15:24:00,
2013-04-03 11:25:00,36.7,14.6,29.38,WNW,292,3.8,4.0,40,0.00,,---,0.00,VWS V13.01,2013-04-03 15:25:00,
2013-04-03 11:27:00,36.7,14.6,29.38,WNW,292,4.9,4.9,40,0.00,,---,0.00,VWS V13.01,2013-04-03 15:27:00,
2013-04-03 11:29:00,36.7,14.6,29.38,SSW,202,1.1,1.1,40,0.00,,---,0.00,VWS V13.01,2013-04-03 15:29:00,
2013-04-03 11:30:00,36.7,14.6,29.38,SW,225,0.0,1.1,40,0.00,,---,0.00,VWS V13.01,2013-04-03 15:30:00,
2013-04-03 11:32:00,37.8,15.6,29.38,NW,315,2.5,3.6,40,0.00,,---,0.00,VWS V13.01,2013-04-03 15:32:00,
2013-04-03 11:34:00,37.8,15.6,29.38,WSW,248,3.1,3.1,40,0.00,,---,0.00,VWS V13.01,2013-04-03 15:34:00,
2013-04-03 11:35:00,37.8,15.6,29.38,North,0,2.2,3.1,40,0.00,,---,0.00,VWS V13.01,2013-04-03 15:35:00,
2013-04-03 11:38:00,37.8,15.6,29.38,SW,225,3.8,3.8,40,0.00,,---,0.00,VWS V13.01,2013-04-03 15:38:00,
2013-04-03 11:39:00,37.8,15.6,29.38,WSW,248,5.6,5.6,40,0.00,,---,0.00,VWS V13.01,2013-04-03 15:39:00,
2013-04-03 11:40:00,37.8,15.6,29.38,SW,225,2.9,5.6,40,0.00,,---,0.00,VWS V13.01,2013-04-03 15:40:00,
2013-04-03 11:43:00,37.8,15.6,29.38,NNE,22,1.6,1.6,40,0.00,,---,0.00,VWS V13.01,2013-04-03 15:43:00,
2013-04-03 11:44:00,37.8,15.6,29.38,East,90,1.3,1.3,40,0.00,,---,0.00,VWS V13.01,2013-04-03 15:44:00,
2013-04-03 11:45:00,37.8,15.6,29.38,East,90,1.3,1.3,40,0.00,,---,0.00,VWS V13.01,2013-04-03 15:45:00,
2013-04-03 11:46:00,37.8,15.6,29.38,SSW,202,2.0,2.0,40,0.00,,---,0.00,VWS V13.01,2013-04-03 15:46:00,
2013-04-03 11:48:00,37.4,15.3,29.38,WSW,248,3.1,3.1,40,0.00,,---,0.00,VWS V13.01,2013-04-03 15:48:00,
2013-04-03 11:49:00,37.4,15.3,29.38,West,270,2.2,3.8,40,0.00,,---,0.00,VWS V13.01,2013-04-03 15:49:00,
2013-04-03 11:50:00,37.4,15.3,29.38,NW,315,2.5,2.5,40,0.00,,---,0.00,VWS V13.01,2013-04-03 15:50:00,
2013-04-03 11:51:00,37.4,15.3,29.38,NW,315,2.5,2.5,40,0.00,,---,0.00,VWS V13.01,2013-04-03 15:51:00,
2013-04-03 11:53:00,37.4,15.3,29.38,North,0,2.0,2.0,40,0.00,,---,0.00,VWS V13.01,2013-04-03 15:53:00,
2013-04-03 11:55:00,37.4,15.3,29.38,SSE,158,2.5,5.6,40,0.00,,---,0.00,VWS V13.01,2013-04-03 15:55:00,
2013-04-03 11:56:00,37.4,15.3,29.38,NNE,22,0.9,2.5,40,0.00,,---,0.00,VWS V13.01,2013-04-03 15:56:00,
2013-04-03 11:58:00,37.4,15.3,29.38,NW,315,2.9,4.0,40,0.00,,---,0.00,VWS V13.01,2013-04-03 15:58:00,
2013-04-03 12:00:00,37.4,14.7,29.38,West,270,0.9,2.9,39,0.00,,---,0.00,VWS V13.01,2013-04-03 16:00:00,
2013-04-03 12:01:00,37.4,14.7,29.38,West,270,3.4,3.4,39,0.00,,---,0.00,VWS V13.01,2013-04-03 16:01:00,
2013-04-03 12:03:00,37.4,14.7,29.38,North,0,2.7,7.4,39,0.00,,---,0.00,VWS V13.01,2013-04-03 16:03:00,
2013-04-03 12:05:00,37.4,14.7,29.38,WSW,248,3.1,3.1,39,0.00,,---,0.00,VWS V13.01,2013-04-03 16:05:00,
2013-04-03 12:06:00,37.4,14.7,29.38,WSW,248,3.1,3.1,39,0.00,,---,0.00,VWS V13.01,2013-04-03 16:06:00,
2013-04-03 12:08:00,37.4,14.7,29.38,North,0,3.8,7.8,39,0.00,,---,0.00,VWS V13.01,2013-04-03 16:08:00,
2013-04-03 12:12:00,38.8,16.0,29.38,North,0,4.0,4.0,39,0.00,,---,0.00,VWS V13.01,2013-04-03 16:12:00,
2013-04-03 12:14:00,38.8,16.0,29.38,NNW,338,1.3,4.5,39,0.00,,---,0.00,VWS V13.01,2013-04-03 16:14:00,
2013-04-03 12:17:00,38.8,16.0,29.38,WNW,292,3.6,4.0,39,0.00,,---,0.00,VWS V13.01,2013-04-03 16:17:00,
2013-04-03 12:19:00,38.8,16.0,29.38,NW,315,3.1,3.1,39,0.00,,---,0.00,VWS V13.01,2013-04-03 16:19:00,
2013-04-03 12:22:00,39.2,16.3,29.38,NNE,22,6.3,6.3,39,0.00,,---,0.00,VWS V13.01,2013-04-03 16:22:00,
2013-04-03 12:24:00,39.2,16.3,29.38,SW,225,4.0,4.0,39,0.00,,---,0.00,VWS V13.01,2013-04-03 16:24:00,
2013-04-03 12:27:00,39.2,16.3,29.38,NW,315,2.2,2.2,39,0.00,,---,0.00,VWS V13.01,2013-04-03 16:27:00,
2013-04-03 12:29:00,39.2,16.3,29.38,West,270,3.4,3.4,39,0.00,,---,0.00,VWS V13.01,2013-04-03 16:29:00,
2013-04-03 12:30:00,39.7,16.8,29.38,West,270,4.9,4.9,39,0.00,,---,0.00,VWS V13.01,2013-04-03 16:30:00,
2013-04-03 12:32:00,39.7,16.8,29.38,WSW,248,3.1,3.1,39,0.00,,---,0.00,VWS V13.01,2013-04-03 16:32:00,
2013-04-03 12:34:00,39.7,16.8,29.38,NNW,338,2.0,2.5,39,0.00,,---,0.00,VWS V13.01,2013-04-03 16:34:00,
2013-04-03 12:35:00,39.7,16.8,29.38,WNW,292,2.5,2.5,39,0.00,,---,0.00,VWS V13.01,2013-04-03 16:35:00,
2013-04-03 12:37:00,39.9,17.0,29.38,WNW,292,3.6,3.6,39,0.00,,---,0.00,VWS V13.01,2013-04-03 16:37:00,
2013-04-03 12:38:00,39.9,17.0,29.38,WNW,292,3.6,3.6,39,0.00,,---,0.00,VWS V13.01,2013-04-03 16:38:00,
2013-04-03 12:40:00,40.5,17.5,29.38,West,270,4.7,4.7,39,0.00,,---,0.00,VWS V13.01,2013-04-03 16:40:00,
2013-04-03 12:43:00,40.5,17.5,29.38,SW,225,2.5,4.7,39,0.00,,---,0.00,VWS V13.01,2013-04-03 16:43:00,
2013-04-03 12:45:00,40.5,17.5,29.38,WSW,248,4.0,4.0,39,0.00,,---,0.00,VWS V13.01,2013-04-03 16:45:00,
2013-04-03 12:48:00,40.5,17.5,29.38,NNW,338,4.3,4.3,39,0.00,,---,0.00,VWS V13.01,2013-04-03 16:48:00,
2013-04-03 12:49:00,40.5,17.5,29.38,SSW,202,2.0,4.3,39,0.00,,---,0.00,VWS V13.01,2013-04-03 16:49:00,
2013-04-03 12:50:00,40.5,17.5,29.38,SSW,202,0.0,2.0,39,0.00,,---,0.00,VWS V13.01,2013-04-03 16:50:00,
2013-04-03 12:51:00,40.5,17.5,29.38,WSW,248,1.6,1.6,39,0.00,,---,0.00,VWS V13.01,2013-04-03 16:51:00,
2013-04-03 12:53:00,41.2,18.1,29.38,West,270,1.1,3.4,39,0.00,,---,0.00,VWS V13.01,2013-04-03 16:53:00,
2013-04-03 12:54:00,41.2,18.1,29.38,West,270,1.1,1.1,39,0.00,,---,0.00,VWS V13.01,2013-04-03 16:54:00,
2013-04-03 12:55:00,41.2,17.5,29.38,WNW,292,2.2,2.2,38,0.00,,---,0.00,VWS V13.01,2013-04-03 16:55:00,
2013-04-03 12:56:00,41.2,17.5,29.38,North,0,3.1,3.1,38,0.00,,---,0.00,VWS V13.01,2013-04-03 16:56:00,
2013-04-03 12:58:00,41.2,17.5,29.38,WSW,248,3.8,9.6,38,0.00,,---,0.00,VWS V13.01,2013-04-03 16:58:00,
2013-04-03 12:59:00,41.2,17.5,29.38,WNW,292,7.8,7.8,38,0.00,,---,0.00,VWS V13.01,2013-04-03 16:59:00,
2013-04-03 13:00:00,41.2,17.5,29.38,WSW,248,2.7,2.7,38,0.00,,---,0.00,VWS V13.01,2013-04-03 17:00:00,
2013-04-03 13:01:00,41.2,17.5,29.38,WSW,248,2.9,2.9,38,0.00,,---,0.00,VWS V13.01,2013-04-03 17:01:00,
2013-04-03 13:03:00,40.6,17.6,29.38,West,270,2.9,5.6,39,0.00,,---,0.00,VWS V13.01,2013-04-03 17:03:00,
2013-04-03 13:04:00,40.6,17.6,29.38,West,270,2.9,5.6,39,0.00,,---,0.00,VWS V13.01,2013-04-03 17:04:00,
2013-04-03 13:06:00,40.6,17.6,29.38,NE,45,2.7,2.7,39,0.00,,---,0.00,VWS V13.01,2013-04-03 17:06:00,
2013-04-03 13:07:00,40.6,17.6,29.38,NE,45,2.7,2.7,39,0.00,,---,0.00,VWS V13.01,2013-04-03 17:07:00,
2013-04-03 13:08:00,40.6,17.6,29.38,NW,315,2.7,2.7,39,0.00,,---,0.00,VWS V13.01,2013-04-03 17:08:00,
2013-04-03 13:09:00,40.6,17.6,29.38,WNW,292,4.0,4.0,39,0.00,,---,0.00,VWS V13.01,2013-04-03 17:09:00,
2013-04-03 13:11:00,40.6,17.6,29.38,West,270,3.4,3.4,39,0.00,,---,0.00,VWS V13.01,2013-04-03 17:11:00,
2013-04-03 13:13:00,40.6,17.6,29.38,NNW,338,3.8,3.8,39,0.00,,---,0.00,VWS V13.01,2013-04-03 17:13:00,
2013-04-03 13:14:00,40.6,17.6,29.38,NNW,338,3.8,3.8,39,0.00,,---,0.00,VWS V13.01,2013-04-03 17:14:00,
2013-04-03 13:15:00,40.6,17.6,29.38,North,0,2.5,4.3,39,0.00,,---,0.00,VWS V13.01,2013-04-03 17:15:00,
2013-04-03 13:16:00,40.6,17.6,29.38,NW,315,1.6,2.5,39,0.00,,---,0.00,VWS V13.01,2013-04-03 17:16:00,
2013-04-03 13:19:00,40.6,17.6,29.38,NNE,22,1.1,4.7,39,0.00,,---,0.00,VWS V13.01,2013-04-03 17:19:00,
2013-04-03 13:20:00,40.6,17.6,29.38,NE,45,3.1,3.1,39,0.00,,---,0.00,VWS V13.01,2013-04-03 17:20:00,
2013-04-03 13:22:00,40.6,17.6,29.38,West,270,2.5,3.1,39,0.00,,---,0.00,VWS V13.01,2013-04-03 17:22:00,
2013-04-03 13:24:00,40.6,17.6,29.38,East,90,2.7,2.7,39,0.00,,---,0.00,VWS V13.01,2013-04-03 17:24:00,
2013-04-03 13:25:00,40.6,17.6,29.38,West,270,4.9,4.9,39,0.00,,---,0.00,VWS V13.01,2013-04-03 17:25:00,
2013-04-03 13:27:00,40.6,17.6,29.38,SSE,158,0.0,4.9,39,0.00,,---,0.00,VWS V13.01,2013-04-03 17:27:00,
2013-04-03 13:29:00,40.6,17.6,29.38,NE,45,2.0,2.7,39,0.00,,---,0.00,VWS V13.01,2013-04-03 17:29:00,
2013-04-03 13:30:00,40.6,17.6,29.38,WSW,248,5.6,5.6,39,0.00,,---,0.00,VWS V13.01,2013-04-03 17:30:00,
2013-04-03 13:32:00,40.6,17.6,29.38,SW,225,4.3,5.6,39,0.00,,---,0.00,VWS V13.01,2013-04-03 17:32:00,
2013-04-03 13:35:00,40.6,17.6,29.38,East,90,5.6,5.6,39,0.00,,---,0.00,VWS V13.01,2013-04-03 17:35:00,
2013-04-03 13:37:00,40.6,17.6,29.38,West,270,2.5,2.5,39,0.00,,---,0.00,VWS V13.01,2013-04-03 17:37:00,
2013-04-03 13:40:00,42.3,18.5,29.38,West,270,2.9,4.9,38,0.00,,---,0.00,VWS V13.01,2013-04-03 17:40:00,
2013-04-03 13:42:00,42.4,18.6,29.38,SW,225,8.7,8.7,38,0.00,,---,0.00,VWS V13.01,2013-04-03 17:42:00,
2013-04-03 13:45:00,42.4,18.6,29.38,North,0,2.9,2.9,38,0.00,,---,0.00,VWS V13.01,2013-04-03 17:45:00,
2013-04-03 13:47:00,42.4,18.6,29.38,WSW,248,3.8,3.8,38,0.00,,---,0.00,VWS V13.01,2013-04-03 17:47:00,
2013-04-03 13:50:00,42.4,18.6,29.38,West,270,2.0,2.0,38,0.00,,---,0.00,VWS V13.01,2013-04-03 17:50:00,
2013-04-03 13:52:00,42.4,18.6,29.38,NW,315,6.3,6.3,38,0.00,,---,0.00,VWS V13.01,2013-04-03 17:52:00,
2013-04-03 13:55:00,42.4,18.6,29.38,West,270,3.4,3.4,38,0.00,,---,0.00,VWS V13.01,2013-04-03 17:55:00,
2013-04-03 13:56:00,42.4,18.6,29.38,WSW,248,5.8,5.8,38,0.00,,---,0.00,VWS V13.01,2013-04-03 17:56:00,
2013-04-03 13:57:00,42.4,18.6,29.38,WSW,248,6.5,6.5,38,0.00,,---,0.00,VWS V13.01,2013-04-03 17:57:00,
2013-04-03 14:00:00,42.6,18.8,29.38,NNE,22,2.0,2.0,38,0.00,,---,0.00,VWS V13.01,2013-04-03 18:00:00,
2013-04-03 14:02:00,42.6,18.8,29.38,NW,315,2.2,6.3,38,0.00,,---,0.00,VWS V13.01,2013-04-03 18:02:00,
2013-04-03 14:05:00,42.6,18.8,29.38,West,270,3.4,3.4,38,0.00,,---,0.00,VWS V13.01,2013-04-03 18:05:00,
2013-04-03 14:07:00,42.6,18.8,29.38,WSW,248,2.9,2.9,38,0.00,,---,0.00,VWS V13.01,2013-04-03 18:07:00,
2013-04-03 14:08:00,42.6,18.8,29.38,WNW,292,3.8,3.8,38,0.00,,---,0.00,VWS V13.01,2013-04-03 18:08:00,
2013-04-03 14:10:00,43.0,19.1,29.38,WSW,248,1.6,2.9,38,0.00,,---,0.00,VWS V13.01,2013-04-03 18:10:00,
2013-04-03 14:12:00,43.2,19.3,29.38,West,270,2.2,2.2,38,0.00,,---,0.00,VWS V13.01,2013-04-03 18:12:00,
2013-04-03 14:13:00,43.2,19.3,29.38,West,270,2.2,2.2,38,0.00,,---,0.00,VWS V13.01,2013-04-03 18:13:00,
2013-04-03 14:15:00,43.2,19.3,29.38,SW,225,4.3,4.3,38,0.00,,---,0.00,VWS V13.01,2013-04-03 18:15:00,
2013-04-03 14:18:00,43.2,19.3,29.35,NW,315,2.7,2.7,38,0.00,,---,0.00,VWS V13.01,2013-04-03 18:18:00,
2013-04-03 14:20:00,43.2,19.3,29.35,East,90,2.0,2.0,38,0.00,,---,0.00,VWS V13.01,2013-04-03 18:20:00,
2013-04-03 14:23:00,43.2,19.3,29.35,NNW,338,5.6,5.6,38,0.00,,---,0.00,VWS V13.01,2013-04-03 18:23:00,
2013-04-03 14:26:00,43.2,19.3,29.35,North,0,2.7,5.6,38,0.00,,---,0.00,VWS V13.01,2013-04-03 18:26:00,
2013-04-03 14:28:00,43.2,19.3,29.35,WSW,248,2.7,4.0,38,0.00,,---,0.00,VWS V13.01,2013-04-03 18:28:00,
2013-04-03 14:31:00,43.3,19.5,29.35,SSW,202,3.1,4.3,38,0.00,,---,0.00,VWS V13.01,2013-04-03 18:31:00,
2013-04-03 14:33:00,43.3,19.5,29.35,West,270,9.0,9.0,38,0.00,,---,0.00,VWS V13.01,2013-04-03 18:33:00,
2013-04-03 14:35:00,43.7,19.1,29.35,NW,315,3.6,3.8,37,0.00,,---,0.00,VWS V13.01,2013-04-03 18:35:00,
2013-04-03 14:37:00,43.7,19.1,29.35,NNW,338,1.3,1.3,37,0.00,,---,0.00,VWS V13.01,2013-04-03 18:37:00,
2013-04-03 14:38:00,43.7,19.1,29.35,SE,135,1.3,1.3,37,0.00,,---,0.00,VWS V13.01,2013-04-03 18:38:00,
2013-04-03 14:40:00,43.7,19.1,29.35,WSW,248,2.9,2.9,37,0.00,,---,0.00,VWS V13.01,2013-04-03 18:40:00,
2013-04-03 14:42:00,43.7,19.1,29.35,NW,315,5.8,5.8,37,0.00,,---,0.00,VWS V13.01,2013-04-03 18:42:00,
2013-04-03 14:43:00,43.7,19.1,29.35,NW,315,2.0,3.4,37,0.00,,---,0.00,VWS V13.01,2013-04-03 18:43:00,
2013-04-03 14:45:00,43.7,19.1,29.35,NW,315,2.7,2.7,37,0.00,,---,0.00,VWS V13.01,2013-04-03 18:45:00,
2013-04-03 14:47:00,43.7,19.1,29.35,NW,315,2.9,2.9,37,0.00,,---,0.00,VWS V13.01,2013-04-03 18:47:00,
2013-04-03 14:48:00,43.7,19.1,29.35,NNE,22,2.7,2.7,37,0.00,,---,0.00,VWS V13.01,2013-04-03 18:48:00,
2013-04-03 14:50:00,43.7,19.1,29.35,North,0,5.4,5.4,37,0.00,,---,0.00,VWS V13.01,2013-04-03 18:50:00,
2013-04-03 14:52:00,43.7,19.1,29.35,West,270,3.6,4.9,37,0.00,,---,0.00,VWS V13.01,2013-04-03 18:52:00,
2013-04-03 14:53:00,43.7,19.1,29.35,WSW,248,3.6,5.6,37,0.00,,---,0.00,VWS V13.01,2013-04-03 18:53:00,
2013-04-03 14:55:00,43.7,19.1,29.35,NE,45,0.0,1.3,37,0.00,,---,0.00,VWS V13.01,2013-04-03 18:55:00,
2013-04-03 14:56:00,43.7,19.1,29.35,NE,45,0.0,1.3,37,0.00,,---,0.00,VWS V13.01,2013-04-03 18:56:00,
2013-04-03 14:58:00,43.7,19.1,29.35,SSW,202,3.1,3.1,37,0.00,,---,0.00,VWS V13.01,2013-04-03 18:58:00,
2013-04-03 15:00:00,43.7,19.1,29.35,SW,225,3.8,3.8,37,0.00,,---,0.00,VWS V13.01,2013-04-03 19:00:00,
2013-04-03 15:01:00,43.7,19.1,29.35,WSW,248,5.6,5.6,37,0.00,,---,0.00,VWS V13.01,2013-04-03 19:01:00,
2013-04-03 15:03:00,44.1,18.8,29.35,WSW,248,2.9,5.6,36,0.00,,---,0.00,VWS V13.01,2013-04-03 19:03:00,
2013-04-03 15:04:00,43.9,18.7,29.35,SW,225,1.6,2.9,36,0.00,,---,0.00,VWS V13.01,2013-04-03 19:04:00,
2013-04-03 15:05:00,43.9,18.7,29.35,SW,225,4.9,4.9,36,0.00,,---,0.00,VWS V13.01,2013-04-03 19:05:00,
2013-04-03 15:07:00,43.9,18.7,29.35,SSW,202,1.3,4.9,36,0.00,,---,0.00,VWS V13.01,2013-04-03 19:07:00,
2013-04-03 15:08:00,43.9,18.7,29.35,WNW,292,5.6,5.6,36,0.00,,---,0.00,VWS V13.01,2013-04-03 19:08:00,
2013-04-03 15:09:00,43.9,18.7,29.35,WNW,292,5.6,5.6,36,0.00,,---,0.00,VWS V13.01,2013-04-03 19:09:00,
2013-04-03 15:11:00,43.9,18.7,29.35,SW,225,2.7,2.7,36,0.00,,---,0.00,VWS V13.01,2013-04-03 19:11:00,
2013-04-03 15:12:00,43.9,18.7,29.35,West,270,4.7,5.4,36,0.00,,---,0.00,VWS V13.01,2013-04-03 19:12:00,
2013-04-03 15:14:00,43.9,18.7,29.35,NNW,338,2.0,2.0,36,0.00,,---,0.00,VWS V13.01,2013-04-03 19:14:00,
2013-04-03 15:16:00,43.9,18.7,29.35,NE,45,2.2,2.2,36,0.00,,---,0.00,VWS V13.01,2013-04-03 19:16:00,
2013-04-03 15:20:00,44.2,19.0,29.35,WNW,292,2.5,2.5,36,0.00,,---,0.00,VWS V13.01,2013-04-03 19:20:00,
2013-04-03 15:21:00,44.2,19.0,29.35,NW,315,3.6,3.6,36,0.00,,---,0.00,VWS V13.01,2013-04-03 19:21:00,
2013-04-03 15:25:00,44.8,20.1,29.35,WNW,292,3.6,3.6,37,0.00,,---,0.00,VWS V13.01,2013-04-03 19:25:00,
2013-04-03 15:26:00,44.8,20.1,29.35,NE,45,4.0,4.0,37,0.00,,---,0.00,VWS V13.01,2013-04-03 19:26:00,
2013-04-03 15:30:00,44.2,18.3,29.35,WSW,248,1.6,3.1,35,0.00,,---,0.00,VWS V13.01,2013-04-03 19:30:00,
2013-04-03 15:31:00,44.2,18.3,29.35,WSW,248,5.8,5.8,35,0.00,,---,0.00,VWS V13.01,2013-04-03 19:31:00,
2013-04-03 15:35:00,44.2,18.3,29.35,WNW,292,3.8,3.8,35,0.00,,---,0.00,VWS V13.01,2013-04-03 19:35:00,
2013-04-03 15:36:00,44.2,18.3,29.35,WSW,248,1.6,3.8,35,0.00,,---,0.00,VWS V13.01,2013-04-03 19:36:00,
2013-04-03 15:38:00,44.2,18.3,29.35,SE,135,2.7,2.7,35,0.00,,---,0.00,VWS V13.01,2013-04-03 19:38:00,
2013-04-03 15:40:00,44.2,18.3,29.35,NE,45,3.6,3.6,35,0.00,,---,0.00,VWS V13.01,2013-04-03 19:40:00,
2013-04-03 15:41:00,44.2,18.3,29.35,NNW,338,1.1,3.6,35,0.00,,---,0.00,VWS V13.01,2013-04-03 19:41:00,
2013-04-03 15:43:00,44.2,18.3,29.35,West,270,3.1,3.1,35,0.00,,---,0.00,VWS V13.01,2013-04-03 19:43:00,
2013-04-03 15:45:00,44.2,18.3,29.35,North,0,1.1,1.1,35,0.00,,---,0.00,VWS V13.01,2013-04-03 19:45:00,
2013-04-03 15:47:00,43.5,17.7,29.35,SW,225,7.2,7.2,35,0.00,,---,0.00,VWS V13.01,2013-04-03 19:47:00,
2013-04-03 15:49:00,43.5,17.7,29.35,NE,45,1.1,4.3,35,0.00,,---,0.00,VWS V13.01,2013-04-03 19:49:00,
2013-04-03 15:50:00,43.5,17.7,29.35,NNW,338,3.8,3.8,35,0.00,,---,0.00,VWS V13.01,2013-04-03 19:50:00,
2013-04-03 15:52:00,43.5,17.7,29.35,NNW,338,3.8,3.8,35,0.00,,---,0.00,VWS V13.01,2013-04-03 19:52:00,
2013-04-03 15:54:00,43.5,17.7,29.35,WNW,292,1.3,1.3,35,0.00,,---,0.00,VWS V13.01,2013-04-03 19:54:00,
2013-04-03 15:55:00,43.5,17.7,29.35,WSW,248,7.2,9.6,35,0.00,,---,0.00,VWS V13.01,2013-04-03 19:55:00,
2013-04-03 15:57:00,44.2,19.0,29.35,North,0,4.0,6.3,36,0.00,,---,0.00,VWS V13.01,2013-04-03 19:57:00,
2013-04-03 16:00:00,44.2,19.0,29.35,NW,315,5.6,5.6,36,0.00,,---,0.00,VWS V13.01,2013-04-03 20:00:00,
2013-04-03 16:02:00,44.2,19.0,29.35,NW,315,3.1,5.8,36,0.00,,---,0.00,VWS V13.01,2013-04-03 20:02:00,
2013-04-03 16:05:00,44.2,19.0,29.35,WNW,292,2.9,3.8,36,0.00,,---,0.00,VWS V13.01,2013-04-03 20:05:00,
2013-04-03 16:07:00,43.9,18.7,29.35,SSW,202,3.4,5.6,36,0.00,,---,0.00,VWS V13.01,2013-04-03 20:07:00,
2013-04-03 16:08:00,43.9,18.7,29.35,SSW,202,3.4,5.6,36,0.00,,---,0.00,VWS V13.01,2013-04-03 20:08:00,
2013-04-03 16:10:00,43.9,18.7,29.35,West,270,2.7,2.7,36,0.00,,---,0.00,VWS V13.01,2013-04-03 20:10:00,
2013-04-03 16:13:00,43.9,18.7,29.35,SW,225,5.4,5.4,36,0.00,,---,0.00,VWS V13.01,2013-04-03 20:13:00,
2013-04-03 16:15:00,43.9,18.7,29.35,WSW,248,5.6,5.6,36,0.00,,---,0.00,VWS V13.01,2013-04-03 20:15:00,
2013-04-03 16:18:00,43.9,18.7,29.35,NW,315,3.4,3.4,36,0.00,,---,0.00,VWS V13.01,2013-04-03 20:18:00,
2013-04-03 16:20:00,43.7,17.9,29.35,WNW,292,4.9,4.9,35,0.00,,---,0.00,VWS V13.01,2013-04-03 20:20:00,
2013-04-03 16:23:00,43.7,17.9,29.35,NW,315,3.6,3.6,35,0.00,,---,0.00,VWS V13.01,2013-04-03 20:23:00,
2013-04-03 16:25:00,43.7,17.9,29.35,WNW,292,3.1,3.1,35,0.00,,---,0.00,VWS V13.01,2013-04-03 20:25:00,
2013-04-03 16:28:00,43.7,17.9,29.35,WSW,248,3.1,3.6,35,0.00,,---,0.00,VWS V13.01,2013-04-03 20:28:00,
2013-04-03 16:30:00,43.7,17.9,29.35,WNW,292,4.0,4.0,35,0.00,,---,0.00,VWS V13.01,2013-04-03 20:30:00,
2013-04-03 16:31:00,43.5,17.7,29.35,West,270,3.6,4.0,35,0.00,,---,0.00,VWS V13.01,2013-04-03 20:31:00,
2013-04-03 16:33:00,43.5,17.7,29.35,WNW,292,5.4,5.4,35,0.00,,---,0.00,VWS V13.01,2013-04-03 20:33:00,
2013-04-03 16:35:00,43.5,17.7,29.35,SW,225,2.7,5.4,35,0.00,,---,0.00,VWS V13.01,2013-04-03 20:35:00,
2013-04-03 16:36:00,43.5,17.7,29.35,WSW,248,2.0,2.7,35,0.00,,---,0.00,VWS V13.01,2013-04-03 20:36:00,
2013-04-03 16:38:00,43.5,17.7,29.38,WSW,248,3.1,3.1,35,0.00,,---,0.00,VWS V13.01,2013-04-03 20:38:00,
2013-04-03 16:39:00,44.2,19.0,29.38,WNW,292,4.0,4.0,36,0.00,,---,0.00,VWS V13.01,2013-04-03 20:39:00,
2013-04-03 16:40:00,44.2,19.0,29.38,WNW,292,6.3,6.3,36,0.00,,---,0.00,VWS V13.01,2013-04-03 20:40:00,
2013-04-03 16:41:00,44.2,18.3,29.38,WNW,292,6.3,6.3,35,0.00,,---,0.00,VWS V13.01,2013-04-03 20:41:00,
2013-04-03 16:44:00,44.2,18.3,29.38,West,270,2.2,2.2,35,0.00,,---,0.00,VWS V13.01,2013-04-03 20:44:00,
2013-04-03 16:45:00,44.2,18.3,29.38,NNE,22,3.6,3.6,35,0.00,,---,0.00,VWS V13.01,2013-04-03 20:45:00,
2013-04-03 16:47:00,44.2,18.3,29.38,WSW,248,2.0,2.0,35,0.00,,---,0.00,VWS V13.01,2013-04-03 20:47:00,
2013-04-03 16:49:00,44.2,18.3,29.38,WNW,292,5.6,6.0,35,0.00,,---,0.00,VWS V13.01,2013-04-03 20:49:00,
2013-04-03 16:50:00,43.7,17.9,29.38,West,270,6.0,6.0,35,0.00,,---,0.00,VWS V13.01,2013-04-03 20:50:00,
2013-04-03 16:52:00,43.7,17.9,29.38,WSW,248,2.7,2.7,35,0.00,,---,0.00,VWS V13.01,2013-04-03 20:52:00,
2013-04-03 16:55:00,43.7,17.9,29.38,NW,315,4.0,4.0,35,0.00,,---,0.00,VWS V13.01,2013-04-03 20:55:00,
2013-04-03 16:56:00,43.7,17.9,29.38,NW,315,3.6,4.0,35,0.00,,---,0.00,VWS V13.01,2013-04-03 20:56:00,
2013-04-03 16:58:00,43.3,17.5,29.38,SW,225,3.4,3.4,35,0.00,,---,0.00,VWS V13.01,2013-04-03 20:58:00,
2013-04-03 17:00:00,43.3,17.5,29.38,NW,315,4.7,4.7,35,0.00,,---,0.00,VWS V13.01,2013-04-03 21:00:00,
2013-04-03 17:02:00,43.3,17.5,29.38,NNW,338,3.8,4.7,35,0.00,,---,0.00,VWS V13.01,2013-04-03 21:02:00,
2013-04-03 17:03:00,43.3,17.5,29.38,WSW,248,4.0,4.0,35,0.00,,---,0.00,VWS V13.01,2013-04-03 21:03:00,
2013-04-03 17:05:00,43.3,17.5,29.38,North,0,5.8,5.8,35,0.00,,---,0.00,VWS V13.01,2013-04-03 21:05:00,
2013-04-03 17:07:00,43.3,17.5,29.38,NNW,338,4.0,4.7,35,0.00,,---,0.00,VWS V13.01,2013-04-03 21:07:00,
2013-04-03 17:08:00,43.3,17.5,29.38,WNW,292,2.0,4.0,35,0.00,,---,0.00,VWS V13.01,2013-04-03 21:08:00,
2013-04-03 17:10:00,42.3,16.6,29.38,NE,45,2.9,4.7,35,0.00,,---,0.00,VWS V13.01,2013-04-03 21:10:00,
2013-04-03 17:12:00,42.3,16.6,29.38,West,270,4.9,4.9,35,0.00,,---,0.00,VWS V13.01,2013-04-03 21:12:00,
2013-04-03 17:13:00,42.3,15.9,29.38,ENE,68,4.7,4.9,34,0.00,,---,0.00,VWS V13.01,2013-04-03 21:13:00,
2013-04-03 17:16:00,42.3,15.9,29.38,WNW,292,7.6,7.6,34,0.00,,---,0.00,VWS V13.01,2013-04-03 21:16:00,
2013-04-03 17:17:00,42.3,15.9,29.38,WSW,248,3.6,5.6,34,0.00,,---,0.00,VWS V13.01,2013-04-03 21:17:00,
2013-04-03 17:18:00,42.3,15.9,29.38,NNW,338,5.4,5.4,34,0.00,,---,0.00,VWS V13.01,2013-04-03 21:18:00,
2013-04-03 17:21:00,42.3,15.9,29.38,WNW,292,6.5,6.5,34,0.00,,---,0.00,VWS V13.01,2013-04-03 21:21:00,
2013-04-03 17:22:00,42.3,15.9,29.38,WNW,292,6.5,6.5,34,0.00,,---,0.00,VWS V13.01,2013-04-03 21:22:00,
2013-04-03 17:23:00,42.3,15.9,29.38,NNE,22,3.4,6.5,34,0.00,,---,0.00,VWS V13.01,2013-04-03 21:23:00,
2013-04-03 17:26:00,42.1,16.4,29.38,NNW,338,0.0,0.0,35,0.00,,---,0.00,VWS V13.01,2013-04-03 21:26:00,
2013-04-03 17:27:00,42.1,16.4,29.38,NW,315,2.0,2.0,35,0.00,,---,0.00,VWS V13.01,2013-04-03 21:27:00,
2013-04-03 17:28:00,42.1,16.4,29.38,NW,315,2.0,2.0,35,0.00,,---,0.00,VWS V13.01,2013-04-03 21:28:00,
2013-04-03 17:29:00,42.1,16.4,29.38,West,270,2.9,5.8,35,0.00,,---,0.00,VWS V13.01,2013-04-03 21:29:00,
2013-04-03 17:32:00,41.7,16.1,29.38,North,0,2.9,2.9,35,0.00,,---,0.00,VWS V13.01,2013-04-03 21:32:00,
2013-04-03 17:33:00,41.7,15.4,29.38,SW,225,7.8,7.8,34,0.00,,---,0.00,VWS V13.01,2013-04-03 21:33:00,
2013-04-03 17:35:00,41.7,15.4,29.38,SSE,158,4.7,4.7,34,0.00,,---,0.00,VWS V13.01,2013-04-03 21:35:00,
2013-04-03 17:37:00,41.7,15.4,29.38,WSW,248,3.4,6.5,34,0.00,,---,0.00,VWS V13.01,2013-04-03 21:37:00,
2013-04-03 17:39:00,41.2,15.6,29.38,WNW,292,5.6,5.6,35,0.00,,---,0.00,VWS V13.01,2013-04-03 21:39:00,
2013-04-03 17:40:00,41.2,15.6,29.38,WSW,248,4.7,5.6,35,0.00,,---,0.00,VWS V13.01,2013-04-03 21:40:00,
2013-04-03 17:42:00,41.2,15.6,29.38,WNW,292,3.1,3.6,35,0.00,,---,0.00,VWS V13.01,2013-04-03 21:42:00,
2013-04-03 17:44:00,41.2,15.6,29.38,NNW,338,1.3,2.5,35,0.00,,---,0.00,VWS V13.01,2013-04-03 21:44:00,
2013-04-03 17:45:00,41.2,15.6,29.38,SW,225,1.3,1.3,35,0.00,,---,0.00,VWS V13.01,2013-04-03 21:45:00,
2013-04-03 17:47:00,41.0,14.8,29.38,NNW,338,2.0,2.0,34,0.00,,---,0.00,VWS V13.01,2013-04-03 21:47:00,
2013-04-03 17:48:00,41.0,14.8,29.38,West,270,6.5,6.5,34,0.00,,---,0.00,VWS V13.01,2013-04-03 21:48:00,
2013-04-03 17:49:00,41.0,14.8,29.38,NNW,338,5.8,6.5,34,0.00,,---,0.00,VWS V13.01,2013-04-03 21:49:00,
2013-04-03 17:50:00,41.0,14.8,29.38,NNW,338,5.8,5.8,34,0.00,,---,0.00,VWS V13.01,2013-04-03 21:50:00,
2013-04-03 17:52:00,40.6,14.5,29.38,NW,315,5.6,5.6,34,0.00,,---,0.00,VWS V13.01,2013-04-03 21:52:00,
2013-04-03 17:53:00,40.6,14.5,29.38,NNW,338,1.6,5.6,34,0.00,,---,0.00,VWS V13.01,2013-04-03 21:53:00,
2013-04-03 17:55:00,40.6,14.5,29.38,WNW,292,4.9,4.9,34,0.00,,---,0.00,VWS V13.01,2013-04-03 21:55:00,
2013-04-03 17:57:00,40.6,15.1,29.38,ESE,112,0.9,0.9,35,0.00,,---,0.00,VWS V13.01,2013-04-03 21:57:00,
2013-04-03 17:58:00,40.6,15.1,29.38,WSW,248,3.4,3.4,35,0.00,,---,0.00,VWS V13.01,2013-04-03 21:58:00,
2013-04-03 18:00:00,40.6,15.1,29.38,West,270,4.0,4.0,35,0.00,,---,0.00,VWS V13.01,2013-04-03 22:00:00,
2013-04-03 18:02:00,40.6,15.1,29.38,NNW,338,2.7,3.6,35,0.00,,---,0.00,VWS V13.01,2013-04-03 22:02:00,
2013-04-03 18:04:00,40.6,15.1,29.38,NW,315,2.9,2.9,35,0.00,,---,0.00,VWS V13.01,2013-04-03 22:04:00,
2013-04-03 18:05:00,40.6,15.1,29.38,West,270,3.4,3.4,35,0.00,,---,0.00,VWS V13.01,2013-04-03 22:05:00,
2013-04-03 18:08:00,40.6,15.1,29.38,WNW,292,2.7,2.7,35,0.00,,---,0.00,VWS V13.01,2013-04-03 22:08:00,
2013-04-03 18:09:00,40.6,15.1,29.38,West,270,1.6,2.7,35,0.00,,---,0.00,VWS V13.01,2013-04-03 22:09:00,
2013-04-03 18:10:00,40.6,15.1,29.41,NNW,338,2.9,2.9,35,0.00,,---,0.00,VWS V13.01,2013-04-03 22:10:00,
2013-04-03 18:11:00,40.6,15.1,29.41,SSW,202,5.4,5.4,35,0.00,,---,0.00,VWS V13.01,2013-04-03 22:11:00,
2013-04-03 18:13:00,40.6,15.1,29.41,North,0,5.6,5.6,35,0.00,,---,0.00,VWS V13.01,2013-04-03 22:13:00,
2013-04-03 18:14:00,40.6,15.1,29.41,WNW,292,3.8,5.6,35,0.00,,---,0.00,VWS V13.01,2013-04-03 22:14:00,
2013-04-03 18:16:00,40.6,15.1,29.41,North,0,4.0,4.0,35,0.00,,---,0.00,VWS V13.01,2013-04-03 22:16:00,
2013-04-03 18:18:00,40.6,15.1,29.41,WNW,292,1.1,1.1,35,0.00,,---,0.00,VWS V13.01,2013-04-03 22:18:00,
2013-04-03 18:19:00,40.6,15.1,29.41,West,270,5.6,5.6,35,0.00,,---,0.00,VWS V13.01,2013-04-03 22:19:00,
2013-04-03 18:21:00,39.4,13.4,29.41,West,270,5.6,5.6,34,0.00,,---,0.00,VWS V13.01,2013-04-03 22:21:00,
2013-04-03 18:23:00,39.4,13.4,29.41,East,90,1.3,1.3,34,0.00,,---,0.00,VWS V13.01,2013-04-03 22:23:00,
2013-04-03 18:24:00,39.4,13.4,29.41,WNW,292,4.0,4.0,34,0.00,,---,0.00,VWS V13.01,2013-04-03 22:24:00,
2013-04-03 18:26:00,39.2,13.2,29.41,West,270,1.1,4.0,34,0.00,,---,0.00,VWS V13.01,2013-04-03 22:26:00,
2013-04-03 18:27:00,39.2,13.2,29.41,North,0,4.9,4.9,34,0.00,,---,0.00,VWS V13.01,2013-04-03 22:27:00,
2013-04-03 18:28:00,39.2,13.2,29.41,North,0,4.0,4.9,34,0.00,,---,0.00,VWS V13.01,2013-04-03 22:28:00,
2013-04-03 18:29:00,39.2,13.2,29.41,North,0,4.0,4.9,34,0.00,,---,0.00,VWS V13.01,2013-04-03 22:29:00,
2013-04-03 18:31:00,39.2,13.2,29.41,North,0,1.3,1.3,34,0.00,,---,0.00,VWS V13.01,2013-04-03 22:31:00,
2013-04-03 18:32:00,39.2,13.2,29.41,North,0,2.0,2.0,34,0.00,,---,0.00,VWS V13.01,2013-04-03 22:32:00,
2013-04-03 18:33:00,39.2,13.2,29.41,NNW,338,1.1,1.1,34,0.00,,---,0.00,VWS V13.01,2013-04-03 22:33:00,
2013-04-03 18:34:00,39.2,13.2,29.41,West,270,2.2,2.2,34,0.00,,---,0.00,VWS V13.01,2013-04-03 22:34:00,
2013-04-03 18:36:00,38.8,13.5,29.41,West,270,2.0,2.0,35,0.00,,---,0.00,VWS V13.01,2013-04-03 22:36:00,
2013-04-03 18:37:00,38.8,13.5,29.41,West,270,2.0,2.0,35,0.00,,---,0.00,VWS V13.01,2013-04-03 22:37:00,
2013-04-03 18:39:00,38.8,13.5,29.41,WSW,248,4.3,4.3,35,0.00,,---,0.00,VWS V13.01,2013-04-03 22:39:00,
2013-04-03 18:42:00,38.8,13.5,29.41,West,270,4.3,4.3,35,0.00,,---,0.00,VWS V13.01,2013-04-03 22:42:00,
2013-04-03 18:44:00,38.8,13.5,29.41,SW,225,2.9,2.9,35,0.00,,---,0.00,VWS V13.01,2013-04-03 22:44:00,
2013-04-03 18:45:00,38.8,13.5,29.41,West,270,4.7,4.7,35,0.00,,---,0.00,VWS V13.01,2013-04-03 22:45:00,
2013-04-03 18:47:00,38.8,13.5,29.41,WNW,292,5.4,5.4,35,0.00,,---,0.00,VWS V13.01,2013-04-03 22:47:00,
2013-04-03 18:50:00,38.8,13.5,29.44,North,0,3.1,4.3,35,0.00,,---,0.00,VWS V13.01,2013-04-03 22:50:00,
2013-04-03 18:52:00,38.8,13.5,29.44,NNE,22,2.0,2.0,35,0.00,,---,0.00,VWS V13.01,2013-04-03 22:52:00,
2013-04-03 18:53:00,38.8,13.5,29.44,NE,45,4.9,4.9,35,0.00,,---,0.00,VWS V13.01,2013-04-03 22:53:00,
2013-04-03 18:55:00,38.8,13.5,29.44,WSW,248,1.3,3.4,35,0.00,,---,0.00,VWS V13.01,2013-04-03 22:55:00,
2013-04-03 18:57:00,37.9,12.7,29.44,North,0,6.5,6.5,35,0.00,,---,0.00,VWS V13.01,2013-04-03 22:57:00,
2013-04-03 18:58:00,37.9,12.7,29.44,WNW,292,2.7,6.5,35,0.00,,---,0.00,VWS V13.01,2013-04-03 22:58:00,
2013-04-03 19:00:00,37.6,12.4,29.44,North,0,4.3,4.3,35,0.00,,---,0.00,VWS V13.01,2013-04-03 23:00:00,
2013-04-03 19:02:00,37.6,12.4,29.44,SW,225,1.3,1.3,35,0.00,,---,0.00,VWS V13.01,2013-04-03 23:02:00,
2013-04-03 19:03:00,37.6,12.4,29.44,North,0,2.5,2.5,35,0.00,,---,0.00,VWS V13.01,2013-04-03 23:03:00,
2013-04-03 19:05:00,37.6,12.4,29.44,East,90,4.7,4.7,35,0.00,,---,0.00,VWS V13.01,2013-04-03 23:05:00,
2013-04-03 19:07:00,37.6,12.4,29.44,ESE,112,2.0,2.9,35,0.00,,---,0.00,VWS V13.01,2013-04-03 23:07:00,
2013-04-03 19:08:00,37.6,12.4,29.44,ESE,112,2.0,2.9,35,0.00,,---,0.00,VWS V13.01,2013-04-03 23:08:00,
2013-04-03 19:10:00,37.0,11.9,29.44,West,270,2.9,2.9,35,0.00,,---,0.00,VWS V13.01,2013-04-03 23:10:00,
2013-04-03 19:12:00,37.0,11.9,29.44,WSW,248,4.0,4.0,35,0.00,,---,0.00,VWS V13.01,2013-04-03 23:12:00,
2013-04-03 19:13:00,37.0,11.9,29.44,North,0,1.6,1.6,35,0.00,,---,0.00,VWS V13.01,2013-04-03 23:13:00,
2013-04-03 19:15:00,37.0,11.9,29.44,WSW,248,2.2,2.2,35,0.00,,---,0.00,VWS V13.01,2013-04-03 23:15:00,
2013-04-03 19:17:00,36.9,11.8,29.44,West,270,2.7,2.7,35,0.00,,---,0.00,VWS V13.01,2013-04-03 23:17:00,
2013-04-03 19:18:00,36.7,11.6,29.44,WNW,292,0.9,0.9,35,0.00,,---,0.00,VWS V13.01,2013-04-03 23:18:00,
2013-04-03 19:20:00,36.7,11.6,29.44,NW,315,1.3,2.9,35,0.00,,---,0.00,VWS V13.01,2013-04-03 23:20:00,
2013-04-03 19:22:00,36.7,11.6,29.44,NW,315,2.5,2.5,35,0.00,,---,0.00,VWS V13.01,2013-04-03 23:22:00,
2013-04-03 19:23:00,36.7,11.6,29.44,NW,315,2.5,2.5,35,0.00,,---,0.00,VWS V13.01,2013-04-03 23:23:00,
2013-04-03 19:25:00,36.3,11.3,29.44,SW,225,2.2,2.2,35,0.00,,---,0.00,VWS V13.01,2013-04-03 23:25:00,
2013-04-03 19:26:00,36.3,11.3,29.44,SW,225,2.2,2.2,35,0.00,,---,0.00,VWS V13.01,2013-04-03 23:26:00,
2013-04-03 19:28:00,36.3,11.3,29.44,WNW,292,1.1,6.3,35,0.00,,---,0.00,VWS V13.01,2013-04-03 23:28:00,
2013-04-03 19:30:00,36.1,11.1,29.44,West,270,3.8,4.9,35,0.00,,---,0.00,VWS V13.01,2013-04-03 23:30:00,
2013-04-03 19:31:00,36.1,11.1,29.44,West,270,3.8,4.9,35,0.00,,---,0.00,VWS V13.01,2013-04-03 23:31:00,
2013-04-03 19:33:00,36.1,11.1,29.44,WNW,292,3.1,3.1,35,0.00,,---,0.00,VWS V13.01,2013-04-03 23:33:00,
2013-04-03 19:35:00,36.1,11.1,29.44,WSW,248,0.0,3.1,35,0.00,,---,0.00,VWS V13.01,2013-04-03 23:35:00,
2013-04-03 19:36:00,36.1,11.1,29.44,WSW,248,0.0,3.1,35,0.00,,---,0.00,VWS V13.01,2013-04-03 23:36:00,
2013-04-03 19:38:00,36.1,11.1,29.44,East,90,3.6,3.6,35,0.00,,---,0.00,VWS V13.01,2013-04-03 23:38:00,
2013-04-03 19:41:00,36.1,11.1,29.44,West,270,2.0,2.0,35,0.00,,---,0.00,VWS V13.01,2013-04-03 23:41:00,
2013-04-03 19:43:00,36.1,11.1,29.44,NW,315,5.4,5.4,35,0.00,,---,0.00,VWS V13.01,2013-04-03 23:43:00,
2013-04-03 19:46:00,36.1,11.1,29.44,WNW,292,3.6,3.6,35,0.00,,---,0.00,VWS V13.01,2013-04-03 23:46:00,
2013-04-03 19:47:00,36.1,11.1,29.44,North,0,2.9,3.6,35,0.00,,---,0.00,VWS V13.01,2013-04-03 23:47:00,
2013-04-03 19:48:00,35.6,10.7,29.44,WSW,248,3.6,3.6,35,0.00,,---,0.00,VWS V13.01,2013-04-03 23:48:00,
2013-04-03 19:51:00,35.6,10.7,29.44,West,270,2.0,2.0,35,0.00,,---,0.00,VWS V13.01,2013-04-03 23:51:00,
2013-04-03 19:52:00,35.6,11.3,29.44,North,0,4.3,4.3,36,0.00,,---,0.00,VWS V13.01,2013-04-03 23:52:00,
2013-04-03 19:54:00,35.6,11.3,29.44,ENE,68,4.3,4.3,36,0.00,,---,0.00,VWS V13.01,2013-04-03 23:54:00,
2013-04-03 19:56:00,35.6,11.3,29.44,WNW,292,1.3,2.9,36,0.00,,---,0.00,VWS V13.01,2013-04-03 23:56:00,
2013-04-03 19:57:00,35.6,11.3,29.44,NNW,338,0.0,0.0,36,0.00,,---,0.00,VWS V13.01,2013-04-03 23:57:00,
2013-04-03 19:59:00,35.2,11.0,29.44,NNW,338,0.0,0.0,36,0.00,,---,0.00,VWS V13.01,2013-04-03 23:59:00,
2013-04-03 20:00:00,35.2,11.0,29.44,NNW,338,1.1,1.1,36,0.00,,---,0.00,VWS V13.01,2013-04-04 00:00:00,
2013-04-03 20:01:00,35.2,11.0,29.44,WNW,292,3.1,5.4,36,0.00,,---,0.00,VWS V13.01,2013-04-04 00:01:00,
2013-04-03 20:02:00,35.2,11.0,29.44,NW,315,1.6,3.1,36,0.00,,---,0.00,VWS V13.01,2013-04-04 00:02:00,
2013-04-03 20:04:00,35.2,11.0,29.44,WSW,248,2.0,3.8,36,0.00,,---,0.00,VWS V13.01,2013-04-04 00:04:00,
2013-04-03 20:05:00,35.2,11.0,29.44,West,270,4.0,4.0,36,0.00,,---,0.00,VWS V13.01,2013-04-04 00:05:00,
2013-04-03 20:06:00,35.2,11.0,29.44,North,0,2.5,4.0,36,0.00,,---,0.00,VWS V13.01,2013-04-04 00:06:00,
2013-04-03 20:08:00,35.2,11.0,29.44,SSW,202,4.3,4.3,36,0.00,,---,0.00,VWS V13.01,2013-04-04 00:08:00,
2013-04-03 20:09:00,35.2,11.0,29.44,WNW,292,2.9,2.9,36,0.00,,---,0.00,VWS V13.01,2013-04-04 00:09:00,
2013-04-03 20:10:00,35.2,11.0,29.44,WNW,292,2.9,2.9,36,0.00,,---,0.00,VWS V13.01,2013-04-04 00:10:00,
2013-04-03 20:12:00,35.2,11.0,29.44,SSW,202,2.9,3.6,36,0.00,,---,0.00,VWS V13.01,2013-04-04 00:12:00,
2013-04-03 20:13:00,35.2,11.0,29.44,WNW,292,5.4,5.4,36,0.00,,---,0.00,VWS V13.01,2013-04-04 00:13:00,
2013-04-03 20:15:00,34.7,11.1,29.44,NNE,22,4.9,4.9,37,0.00,,---,0.00,VWS V13.01,2013-04-04 00:15:00,
2013-04-03 20:17:00,34.7,11.1,29.47,WSW,248,5.4,5.4,37,0.00,,---,0.00,VWS V13.01,2013-04-04 00:17:00,
2013-04-03 20:18:00,34.7,11.1,29.47,WSW,248,2.5,5.4,37,0.00,,---,0.00,VWS V13.01,2013-04-04 00:18:00,
2013-04-03 20:20:00,34.7,11.1,29.47,NW,315,4.7,4.7,37,0.00,,---,0.00,VWS V13.01,2013-04-04 00:20:00,
2013-04-03 20:22:00,34.7,11.1,29.47,West,270,2.7,2.7,37,0.00,,---,0.00,VWS V13.01,2013-04-04 00:22:00,
2013-04-03 20:23:00,34.7,11.1,29.47,WSW,248,4.3,4.3,37,0.00,,---,0.00,VWS V13.01,2013-04-04 00:23:00,
2013-04-03 20:25:00,34.7,11.1,29.47,West,270,2.5,2.5,37,0.00,,---,0.00,VWS V13.01,2013-04-04 00:25:00,
2013-04-03 20:27:00,34.7,11.1,29.47,WNW,292,5.6,5.6,37,0.00,,---,0.00,VWS V13.01,2013-04-04 00:27:00,
2013-04-03 20:29:00,34.7,11.1,29.47,NNE,22,4.9,4.9,37,0.00,,---,0.00,VWS V13.01,2013-04-04 00:29:00,
2013-04-03 20:30:00,34.7,11.1,29.47,NNE,22,4.9,4.9,37,0.00,,---,0.00,VWS V13.01,2013-04-04 00:30:00,
2013-04-03 20:32:00,34.7,11.1,29.47,WNW,292,4.3,4.3,37,0.00,,---,0.00,VWS V13.01,2013-04-04 00:32:00,
2013-04-03 20:34:00,34.7,11.1,29.47,SW,225,1.1,2.5,37,0.00,,---,0.00,VWS V13.01,2013-04-04 00:34:00,
2013-04-03 20:35:00,34.7,11.1,29.47,WNW,292,2.9,2.9,37,0.00,,---,0.00,VWS V13.01,2013-04-04 00:35:00,
2013-04-03 20:37:00,34.7,11.1,29.47,NNE,22,5.6,5.6,37,0.00,,---,0.00,VWS V13.01,2013-04-04 00:37:00,
2013-04-03 20:39:00,34.3,10.8,29.47,WSW,248,4.0,4.0,37,0.00,,---,0.00,VWS V13.01,2013-04-04 00:39:00,
2013-04-03 20:40:00,34.3,10.8,29.47,West,270,5.4,5.4,37,0.00,,---,0.00,VWS V13.01,2013-04-04 00:40:00,
2013-04-03 20:42:00,34.3,10.8,29.47,North,0,1.6,1.6,37,0.00,,---,0.00,VWS V13.01,2013-04-04 00:42:00,
2013-04-03 20:44:00,34.2,10.6,29.47,West,270,2.2,2.5,37,0.00,,---,0.00,VWS V13.01,2013-04-04 00:44:00,
2013-04-03 20:45:00,34.2,10.6,29.47,SSE,158,4.9,4.9,37,0.00,,---,0.00,VWS V13.01,2013-04-04 00:45:00,
2013-04-03 20:46:00,34.2,10.6,29.47,SSE,158,4.9,4.9,37,0.00,,---,0.00,VWS V13.01,2013-04-04 00:46:00,
2013-04-03 20:47:00,34.2,10.6,29.50,West,270,2.5,2.7,37,0.00,,---,0.00,VWS V13.01,2013-04-04 00:47:00,
2013-04-03 20:49:00,34.0,10.5,29.50,West,270,3.4,3.4,37,0.00,,---,0.00,VWS V13.01,2013-04-04 00:49:00,
2013-04-03 20:51:00,34.0,10.5,29.50,West,270,5.4,5.4,37,0.00,,---,0.00,VWS V13.01,2013-04-04 00:51:00,
2013-04-03 20:53:00,34.0,10.5,29.50,WNW,292,3.4,3.4,37,0.00,,---,0.00,VWS V13.01,2013-04-04 00:53:00,
2013-04-03 20:54:00,34.0,10.5,29.50,NW,315,2.5,2.5,37,0.00,,---,0.00,VWS V13.01,2013-04-04 00:54:00,
2013-04-03 20:56:00,34.0,10.5,29.50,WNW,292,3.8,3.8,37,0.00,,---,0.00,VWS V13.01,2013-04-04 00:56:00,
2013-04-03 20:58:00,34.0,10.5,29.50,NNE,22,3.1,3.1,37,0.00,,---,0.00,VWS V13.01,2013-04-04 00:58:00,
2013-04-03 21:00:00,34.0,10.5,29.50,WNW,292,7.4,7.4,37,0.00,,---,0.00,VWS V13.01,2013-04-04 01:00:00,
2013-04-03 21:01:00,34.0,10.5,29.50,WNW,292,7.4,7.4,37,0.00,,---,0.00,VWS V13.01,2013-04-04 01:01:00,
2013-04-03 21:02:00,34.0,10.5,29.50,WNW,292,7.4,7.4,37,0.00,,---,0.00,VWS V13.01,2013-04-04 01:02:00,
2013-04-03 21:03:00,34.0,10.5,29.50,WNW,292,4.7,4.7,37,0.00,,---,0.00,VWS V13.01,2013-04-04 01:03:00,
2013-04-03 21:05:00,34.0,10.5,29.50,West,270,1.1,2.0,37,0.00,,---,0.00,VWS V13.01,2013-04-04 01:05:00,
2013-04-03 21:06:00,34.0,10.5,29.50,NW,315,4.9,4.9,37,0.00,,---,0.00,VWS V13.01,2013-04-04 01:06:00,
2013-04-03 21:07:00,34.0,10.5,29.50,North,0,3.8,4.9,37,0.00,,---,0.00,VWS V13.01,2013-04-04 01:07:00,
2013-04-03 21:08:00,34.0,10.5,29.50,North,0,1.6,3.8,37,0.00,,---,0.00,VWS V13.01,2013-04-04 01:08:00,
2013-04-03 21:10:00,34.0,10.5,29.50,SSW,202,2.5,3.1,37,0.00,,---,0.00,VWS V13.01,2013-04-04 01:10:00,
2013-04-03 21:11:00,34.0,10.5,29.50,North,0,3.4,3.8,37,0.00,,---,0.00,VWS V13.01,2013-04-04 01:11:00,
2013-04-03 21:12:00,34.0,10.5,29.50,North,0,3.4,3.4,37,0.00,,---,0.00,VWS V13.01,2013-04-04 01:12:00,
2013-04-03 21:13:00,34.0,10.5,29.50,SW,225,5.6,5.6,37,0.00,,---,0.00,VWS V13.01,2013-04-04 01:13:00,
2013-04-03 21:15:00,33.6,10.7,29.50,West,270,5.6,7.6,38,0.00,,---,0.00,VWS V13.01,2013-04-04 01:15:00,
2013-04-03 21:17:00,33.6,10.7,29.50,NNW,338,2.2,2.5,38,0.00,,---,0.00,VWS V13.01,2013-04-04 01:17:00,
2013-04-03 21:18:00,33.6,10.7,29.50,SW,225,2.0,2.0,38,0.00,,---,0.00,VWS V13.01,2013-04-04 01:18:00,
2013-04-03 21:20:00,33.6,10.7,29.50,West,270,4.0,4.0,38,0.00,,---,0.00,VWS V13.01,2013-04-04 01:20:00,
2013-04-03 21:22:00,33.6,10.7,29.50,SE,135,1.3,2.0,38,0.00,,---,0.00,VWS V13.01,2013-04-04 01:22:00,
2013-04-03 21:23:00,33.6,10.7,29.50,WNW,292,2.9,2.9,38,0.00,,---,0.00,VWS V13.01,2013-04-04 01:23:00,
2013-04-03 21:25:00,33.6,10.7,29.50,NE,45,2.0,2.0,38,0.00,,---,0.00,VWS V13.01,2013-04-04 01:25:00,
2013-04-03 21:27:00,33.6,10.7,29.50,WSW,248,5.6,5.6,38,0.00,,---,0.00,VWS V13.01,2013-04-04 01:27:00,
2013-04-03 21:28:00,33.6,10.7,29.50,WSW,248,3.1,5.6,38,0.00,,---,0.00,VWS V13.01,2013-04-04 01:28:00,
2013-04-03 21:30:00,33.6,10.7,29.50,WNW,292,3.1,4.3,38,0.00,,---,0.00,VWS V13.01,2013-04-04 01:30:00,
2013-04-03 21:32:00,33.6,10.7,29.50,SW,225,6.3,6.3,38,0.00,,---,0.00,VWS V13.01,2013-04-04 01:32:00,
2013-04-03 21:33:00,33.6,10.7,29.50,NW,315,2.5,6.3,38,0.00,,---,0.00,VWS V13.01,2013-04-04 01:33:00,
2013-04-03 21:35:00,33.3,10.4,29.50,WSW,248,0.0,2.2,38,0.00,,---,0.00,VWS V13.01,2013-04-04 01:35:00,
2013-04-03 21:40:00,33.1,10.2,29.50,NNW,338,2.9,3.6,38,0.00,,---,0.00,VWS V13.01,2013-04-04 01:40:00,
2013-04-03 21:41:00,33.1,10.2,29.50,West,270,1.3,2.9,38,0.00,,---,0.00,VWS V13.01,2013-04-04 01:41:00,
2013-04-03 21:44:00,33.1,10.2,29.50,SW,225,0.0,3.1,38,0.00,,---,0.00,VWS V13.01,2013-04-04 01:44:00,
2013-04-03 21:46:00,33.1,10.2,29.50,East,90,2.7,6.3,38,0.00,,---,0.00,VWS V13.01,2013-04-04 01:46:00,
2013-04-03 21:47:00,33.1,10.2,29.50,NW,315,3.8,3.8,38,0.00,,---,0.00,VWS V13.01,2013-04-04 01:47:00,
2013-04-03 21:48:00,33.1,10.2,29.50,WSW,248,2.5,3.8,38,0.00,,---,0.00,VWS V13.01,2013-04-04 01:48:00,
2013-04-03 21:50:00,33.1,10.2,29.50,West,270,4.0,4.9,38,0.00,,---,0.00,VWS V13.01,2013-04-04 01:50:00,
2013-04-03 21:51:00,33.1,10.2,29.50,West,270,4.0,4.0,38,0.00,,---,0.00,VWS V13.01,2013-04-04 01:51:00,
2013-04-03 21:52:00,33.1,10.2,29.50,WNW,292,3.6,3.6,38,0.00,,---,0.00,VWS V13.01,2013-04-04 01:52:00,
2013-04-03 21:53:00,33.1,10.2,29.50,WNW,292,3.6,3.6,38,0.00,,---,0.00,VWS V13.01,2013-04-04 01:53:00,
2013-04-03 21:55:00,32.9,10.7,29.50,SW,225,4.9,4.9,39,0.00,,---,0.00,VWS V13.01,2013-04-04 01:55:00,
2013-04-03 21:56:00,32.9,10.7,29.50,West,270,3.4,4.9,39,0.00,,---,0.00,VWS V13.01,2013-04-04 01:56:00,
2013-04-03 21:57:00,32.9,10.7,29.50,WNW,292,2.0,2.0,39,0.00,,---,0.00,VWS V13.01,2013-04-04 01:57:00,
2013-04-03 21:58:00,32.9,10.7,29.50,NW,315,0.0,2.9,39,0.00,,---,0.00,VWS V13.01,2013-04-04 01:58:00,
2013-04-03 22:00:00,32.9,10.7,29.50,WNW,292,2.5,2.5,39,0.00,,---,0.00,VWS V13.01,2013-04-04 02:00:00,
2013-04-03 22:01:00,32.9,10.7,29.50,West,270,2.9,2.9,39,0.00,,---,0.00,VWS V13.01,2013-04-04 02:01:00,
2013-04-03 22:03:00,32.7,10.5,29.53,SSW,202,2.9,2.9,39,0.00,,---,0.00,VWS V13.01,2013-04-04 02:03:00,
2013-04-03 22:05:00,32.7,10.5,29.53,NE,45,1.1,2.2,39,0.00,,---,0.00,VWS V13.01,2013-04-04 02:05:00,
2013-04-03 22:06:00,32.7,10.5,29.53,North,0,1.1,1.1,39,0.00,,---,0.00,VWS V13.01,2013-04-04 02:06:00,
2013-04-03 22:11:00,32.7,10.5,29.53,North,0,6.9,6.9,39,0.00,,---,0.00,VWS V13.01,2013-04-04 02:11:00,
2013-04-03 22:12:00,32.7,10.5,29.53,NE,45,3.1,6.9,39,0.00,,---,0.00,VWS V13.01,2013-04-04 02:12:00,
2013-04-03 22:13:00,32.7,10.5,29.53,West,270,3.8,3.8,39,0.00,,---,0.00,VWS V13.01,2013-04-04 02:13:00,
2013-04-03 22:16:00,32.7,10.5,29.53,NNW,338,1.3,2.5,39,0.00,,---,0.00,VWS V13.01,2013-04-04 02:16:00,
2013-04-03 22:17:00,32.7,10.5,29.53,SW,225,5.8,5.8,39,0.00,,---,0.00,VWS V13.01,2013-04-04 02:17:00,
2013-04-03 22:18:00,32.7,10.5,29.53,West,270,2.7,5.8,39,0.00,,---,0.00,VWS V13.01,2013-04-04 02:18:00,
2013-04-03 22:22:00,32.7,10.5,29.53,WNW,292,2.5,4.7,39,0.00,,---,0.00,VWS V13.01,2013-04-04 02:22:00,
2013-04-03 22:23:00,32.7,10.5,29.53,West,270,2.9,2.9,39,0.00,,---,0.00,VWS V13.01,2013-04-04 02:23:00,
2013-04-03 22:25:00,32.7,10.5,29.53,WNW,292,1.1,1.1,39,0.00,,---,0.00,VWS V13.01,2013-04-04 02:25:00,
2013-04-03 22:27:00,32.7,10.5,29.53,WSW,248,3.8,3.8,39,0.00,,---,0.00,VWS V13.01,2013-04-04 02:27:00,
2013-04-03 22:28:00,32.5,10.9,29.53,West,270,2.2,2.2,40,0.00,,---,0.00,VWS V13.01,2013-04-04 02:28:00,
2013-04-03 22:30:00,32.4,10.8,29.53,WSW,248,0.0,2.5,40,0.00,,---,0.00,VWS V13.01,2013-04-04 02:30:00,
2013-04-03 22:32:00,32.4,10.8,29.53,SSW,202,2.0,2.0,40,0.00,,---,0.00,VWS V13.01,2013-04-04 02:32:00,
2013-04-03 22:33:00,32.4,10.8,29.53,SW,225,0.0,0.0,40,0.00,,---,0.00,VWS V13.01,2013-04-04 02:33:00,
2013-04-03 22:35:00,32.4,10.8,29.53,NW,315,7.4,7.4,40,0.00,,---,0.00,VWS V13.01,2013-04-04 02:35:00,
2013-04-03 22:37:00,32.4,10.8,29.53,NE,45,2.7,3.1,40,0.00,,---,0.00,VWS V13.01,2013-04-04 02:37:00,
2013-04-03 22:38:00,32.4,10.8,29.53,West,270,3.1,3.1,40,0.00,,---,0.00,VWS V13.01,2013-04-04 02:38:00,
2013-04-03 22:40:00,32.4,10.8,29.53,West,270,4.0,4.0,40,0.00,,---,0.00,VWS V13.01,2013-04-04 02:40:00,
2013-04-03 22:42:00,32.4,10.8,29.53,NE,45,0.0,2.2,40,0.00,,---,0.00,VWS V13.01,2013-04-04 02:42:00,
2013-04-03 22:43:00,32.4,10.8,29.53,WSW,248,2.0,2.0,40,0.00,,---,0.00,VWS V13.01,2013-04-04 02:43:00,
2013-04-03 22:44:00,32.4,10.8,29.53,WNW,292,2.5,2.5,40,0.00,,---,0.00,VWS V13.01,2013-04-04 02:44:00,
2013-04-03 22:45:00,32.4,10.8,29.53,SW,225,1.3,2.5,40,0.00,,---,0.00,VWS V13.01,2013-04-04 02:45:00,
2013-04-03 22:47:00,32.4,10.8,29.53,SSW,202,0.9,5.4,40,0.00,,---,0.00,VWS V13.01,2013-04-04 02:47:00,
2013-04-03 22:48:00,32.4,10.8,29.53,SSW,202,0.9,5.4,40,0.00,,---,0.00,VWS V13.01,2013-04-04 02:48:00,
2013-04-03 22:50:00,32.4,10.8,29.53,East,90,1.1,1.1,40,0.00,,---,0.00,VWS V13.01,2013-04-04 02:50:00,
2013-04-03 22:52:00,32.4,10.8,29.53,West,270,3.4,3.4,40,0.00,,---,0.00,VWS V13.01,2013-04-04 02:52:00,
2013-04-03 22:53:00,32.4,10.8,29.53,West,270,3.4,3.4,40,0.00,,---,0.00,VWS V13.01,2013-04-04 02:53:00,
2013-04-03 22:55:00,32.4,10.8,29.53,NNW,338,2.9,2.9,40,0.00,,---,0.00,VWS V13.01,2013-04-04 02:55:00,
2013-04-03 22:56:00,32.2,10.6,29.53,NNW,338,2.9,2.9,40,0.00,,---,0.00,VWS V13.01,2013-04-04 02:56:00,
2013-04-03 22:57:00,32.2,10.6,29.53,West,270,2.5,2.5,40,0.00,,---,0.00,VWS V13.01,2013-04-04 02:57:00,
2013-04-03 22:58:00,32.2,10.6,29.53,West,270,2.5,2.5,40,0.00,,---,0.00,VWS V13.01,2013-04-04 02:58:00,
2013-04-03 23:00:00,32.2,10.6,29.53,West,270,2.5,2.5,40,0.00,,---,0.00,VWS V13.01,2013-04-04 03:00:00,
2013-04-03 23:01:00,32.0,10.4,29.53,SSE,158,2.0,2.5,40,0.00,,---,0.00,VWS V13.01,2013-04-04 03:01:00,
2013-04-03 23:03:00,32.0,10.4,29.53,WNW,292,1.3,3.8,40,0.00,,---,0.00,VWS V13.01,2013-04-04 03:03:00,
2013-04-03 23:05:00,32.0,10.4,29.53,WSW,248,2.7,2.7,40,0.00,,---,0.00,VWS V13.01,2013-04-04 03:05:00,
2013-04-03 23:07:00,32.0,10.4,29.53,West,270,6.0,6.0,40,0.00,,---,0.00,VWS V13.01,2013-04-04 03:07:00,
2013-04-03 23:08:00,32.0,10.4,29.53,West,270,3.8,6.0,40,0.00,,---,0.00,VWS V13.01,2013-04-04 03:08:00,
2013-04-03 23:10:00,32.0,10.4,29.53,West,270,3.1,3.1,40,0.00,,---,0.00,VWS V13.01,2013-04-04 03:10:00,
2013-04-03 23:12:00,32.0,10.4,29.53,SSE,158,0.0,0.0,40,0.00,,---,0.00,VWS V13.01,2013-04-04 03:12:00,
2013-04-03 23:13:00,32.0,10.4,29.53,NNW,338,2.2,2.2,40,0.00,,---,0.00,VWS V13.01,2013-04-04 03:13:00,
2013-04-03 23:15:00,32.0,10.4,29.53,West,270,0.0,1.3,40,0.00,,---,0.00,VWS V13.01,2013-04-04 03:15:00,
2013-04-03 23:17:00,32.0,10.4,29.53,WSW,248,0.0,0.0,40,0.00,,---,0.00,VWS V13.01,2013-04-04 03:17:00,
2013-04-03 23:18:00,32.0,10.4,29.53,SW,225,0.0,0.0,40,0.00,,---,0.00,VWS V13.01,2013-04-04 03:18:00,
2013-04-03 23:19:00,32.0,10.4,29.53,East,90,0.0,0.0,40,0.00,,---,0.00,VWS V13.01,2013-04-04 03:19:00,
2013-04-03 23:21:00,32.0,10.4,29.53,SW,225,2.5,2.5,40,0.00,,---,0.00,VWS V13.01,2013-04-04 03:21:00,
2013-04-03 23:22:00,32.0,10.4,29.53,NNE,22,2.5,2.5,40,0.00,,---,0.00,VWS V13.01,2013-04-04 03:22:00,
2013-04-03 23:24:00,31.8,10.3,29.53,SW,225,0.9,3.4,40,0.00,,---,0.00,VWS V13.01,2013-04-04 03:24:00,
2013-04-03 23:25:00,31.8,10.3,29.53,SW,225,0.9,3.4,40,0.00,,---,0.00,VWS V13.01,2013-04-04 03:25:00,
2013-04-03 23:26:00,31.8,10.3,29.53,SW,225,2.0,2.0,40,0.00,,---,0.00,VWS V13.01,2013-04-04 03:26:00,
2013-04-03 23:27:00,31.8,10.3,29.53,NNE,22,1.3,2.5,40,0.00,,---,0.00,VWS V13.01,2013-04-04 03:27:00,
2013-04-03 23:29:00,31.8,10.3,29.53,West,270,5.6,5.6,40,0.00,,---,0.00,VWS V13.01,2013-04-04 03:29:00,
2013-04-03 23:30:00,31.8,10.3,29.53,West,270,5.6,5.6,40,0.00,,---,0.00,VWS V13.01,2013-04-04 03:30:00,
2013-04-03 23:31:00,31.8,10.3,29.53,SW,225,2.7,5.6,40,0.00,,---,0.00,VWS V13.01,2013-04-04 03:31:00,
2013-04-03 23:33:00,31.8,10.3,29.53,WSW,248,3.8,3.8,40,0.00,,---,0.00,VWS V13.01,2013-04-04 03:33:00,
2013-04-03 23:35:00,31.8,10.3,29.53,WNW,292,0.0,2.5,40,0.00,,---,0.00,VWS V13.01,2013-04-04 03:35:00,
2013-04-03 23:36:00,31.8,10.3,29.53,East,90,0.0,3.4,40,0.00,,---,0.00,VWS V13.01,2013-04-04 03:36:00,
2013-04-03 23:38:00,31.8,10.3,29.53,NE,45,0.0,0.0,40,0.00,,---,0.00,VWS V13.01,2013-04-04 03:38:00,
2013-04-03 23:40:00,31.8,10.3,29.53,SSW,202,1.1,1.6,40,0.00,,---,0.00,VWS V13.01,2013-04-04 03:40:00,
2013-04-03 23:42:00,31.8,10.3,29.56,NE,45,2.0,2.0,40,0.00,,---,0.00,VWS V13.01,2013-04-04 03:42:00,
2013-04-03 23:43:00,31.8,10.3,29.56,WNW,292,3.6,3.6,40,0.00,,---,0.00,VWS V13.01,2013-04-04 03:43:00,
2013-04-03 23:45:00,31.6,10.1,29.56,WSW,248,0.0,0.0,40,0.00,,---,0.00,VWS V13.01,2013-04-04 03:45:00,
2013-04-03 23:47:00,31.6,10.1,29.56,WSW,248,0.0,0.0,40,0.00,,---,0.00,VWS V13.01,2013-04-04 03:47:00,
2013-04-03 23:48:00,31.6,10.1,29.56,WSW,248,0.0,0.0,40,0.00,,---,0.00,VWS V13.01,2013-04-04 03:48:00,
2013-04-03 23:50:00,31.6,10.1,29.56,SE,135,0.0,1.6,40,0.00,,---,0.00,VWS V13.01,2013-04-04 03:50:00,
2013-04-03 23:52:00,31.6,10.1,29.56,North,0,2.0,2.0,40,0.00,,---,0.00,VWS V13.01,2013-04-04 03:52:00,
2013-04-03 23:53:00,31.6,10.1,29.56,North,0,2.0,2.0,40,0.00,,---,0.00,VWS V13.01,2013-04-04 03:53:00,
2013-04-03 23:55:00,31.5,9.9,29.56,NNE,22,1.3,1.3,40,0.00,,---,0.00,VWS V13.01,2013-04-04 03:55:00,
2013-04-03 23:56:00,31.5,9.9,29.56,NW,315,1.3,1.3,40,0.00,,---,0.00,VWS V13.01,2013-04-04 03:56:00,
2013-04-03 23:58:00,31.5,9.9,29.56,SE,135,0.0,2.9,40,0.00,,---,0.00,VWS V13.01,2013-04-04 03:58:00,